DAL8976 SKBO-LFPG
Flight info
| Callsign | DAL8976 |
|---|---|
| Flight time | 10h 12m |
| Altitude | 35000 |
| Route | DANSA4R DANSA DCT BUV UW1 ENPUT UG431 ALCOT UL325 PJG UM576 SINDA/N0497F370 UM576 ACORA DCT MILOK M576 PJM DCT OBIKE/M085F370 DCT 20N060W 24N050W 26N045W/M085F390 28N040W 35N030W 41N020W DCT PASAS/M085F410 DCT SIVIR DCT RIVAK/N0496F400 DCT KOLEK DCT AKEMO DCT TERPO DCT ANG/N0499F300 UN741 TEMTO DCT ROMGO |
| Aircraft | A359/H-SDE2E3GHIJ3J4J5LM1ORWXY/LB1D1 |
Departure
| Time | 2026-05-04 14:22 |
|---|---|
| Airport | El Dorado International Airport (SKBO) |
Arrival
| Time | 2026-05-05 00:34 |
|---|---|
| Airport | Charles de Gaulle International Airport (LFPG) |
| Time | Latitude | Longitude | Altitude | Speed | Heading |
|---|---|---|---|---|---|
| 2026-05-04 14:07 | 4.69915 | -74.14010 | 8367 ft | 0 kts | 211° |
| 2026-05-04 14:12 | 4.69927 | -74.14003 | 8368 ft | 3 kts | 211° |
| 2026-05-04 14:12 | 4.69958 | -74.13984 | 8368 ft | 3 kts | 198° |
| 2026-05-04 14:13 | 4.69977 | -74.13981 | 8368 ft | 3 kts | 165° |
| 2026-05-04 14:13 | 4.69993 | -74.13989 | 8368 ft | 3 kts | 130° |
| 2026-05-04 14:13 | 4.70005 | -74.14006 | 8368 ft | 3 kts | 120° |
| 2026-05-04 14:13 | 4.70012 | -74.14018 | 8368 ft | 1 kts | 126° |
| 2026-05-04 14:14 | 4.70014 | -74.14021 | 8368 ft | 0 kts | 126° |
| 2026-05-04 14:17 | 4.69996 | -74.13995 | 8368 ft | 12 kts | 126° |
| 2026-05-04 14:17 | 4.69954 | -74.13936 | 8368 ft | 9 kts | 124° |
| 2026-05-04 14:17 | 4.69928 | -74.13790 | 8368 ft | 8 kts | 121° |
| 2026-05-04 14:18 | 4.69881 | -74.13720 | 8368 ft | 16 kts | 123° |
| 2026-05-04 14:18 | 4.69769 | -74.13572 | 8368 ft | 18 kts | 128° |
| 2026-05-04 14:19 | 4.69530 | -74.13259 | 8368 ft | 27 kts | 127° |
| 2026-05-04 14:19 | 4.69423 | -74.13115 | 8368 ft | 25 kts | 127° |
| 2026-05-04 14:19 | 4.69339 | -74.12978 | 8368 ft | 22 kts | 105° |
| 2026-05-04 14:19 | 4.69299 | -74.12840 | 8368 ft | 20 kts | 122° |
| 2026-05-04 14:20 | 4.69222 | -74.12734 | 8368 ft | 18 kts | 128° |
| 2026-05-04 14:20 | 4.69207 | -74.12625 | 8368 ft | 16 kts | 80° |
| 2026-05-04 14:20 | 4.69238 | -74.12526 | 8368 ft | 14 kts | 53° |
| 2026-05-04 14:21 | 4.69475 | -74.12735 | 8366 ft | 67 kts | 307° |
| 2026-05-04 14:21 | 4.69868 | -74.13259 | 8368 ft | 120 kts | 307° |
| 2026-05-04 14:21 | 4.70475 | -74.14060 | 8366 ft | 166 kts | 307° |
| 2026-05-04 14:21 | 4.71228 | -74.15066 | 8659 ft | 182 kts | 306° |
| 2026-05-04 14:22 | 4.71961 | -74.16080 | 9336 ft | 176 kts | 308° |
| 2026-05-04 14:22 | 4.72722 | -74.17070 | 9627 ft | 191 kts | 309° |
| 2026-05-04 14:22 | 4.73575 | -74.18175 | 9745 ft | 203 kts | 309° |
| 2026-05-04 14:22 | 4.74460 | -74.19337 | 9866 ft | 217 kts | 308° |
| 2026-05-04 14:23 | 4.75633 | -74.22237 | 10119 ft | 247 kts | 262° |
| 2026-05-04 14:23 | 4.75319 | -74.23975 | 10371 ft | 261 kts | 256° |
| 2026-05-04 14:23 | 4.74923 | -74.25759 | 10704 ft | 268 kts | 256° |
| 2026-05-04 14:24 | 4.74524 | -74.27611 | 11205 ft | 271 kts | 256° |
| 2026-05-04 14:24 | 4.74131 | -74.29484 | 11647 ft | 275 kts | 257° |
| 2026-05-04 14:24 | 4.73745 | -74.31360 | 11915 ft | 277 kts | 257° |
| 2026-05-04 14:24 | 4.73344 | -74.33333 | 11965 ft | 300 kts | 257° |
| 2026-05-04 14:25 | 4.72912 | -74.35462 | 11951 ft | 324 kts | 257° |
| 2026-05-04 14:25 | 4.71860 | -74.40112 | 12186 ft | 355 kts | 249° |
| 2026-05-04 14:25 | 4.70621 | -74.42245 | 12367 ft | 365 kts | 227° |
| 2026-05-04 14:26 | 4.68596 | -74.43821 | 12492 ft | 373 kts | 205° |
| 2026-05-04 14:26 | 4.66090 | -74.44568 | 12681 ft | 381 kts | 188° |
| 2026-05-04 14:26 | 4.63437 | -74.44929 | 12865 ft | 390 kts | 186° |
| 2026-05-04 14:26 | 4.60729 | -74.45257 | 13187 ft | 394 kts | 186° |
| 2026-05-04 14:27 | 4.58017 | -74.45595 | 13547 ft | 397 kts | 186° |
| 2026-05-04 14:27 | 4.55240 | -74.45950 | 13874 ft | 400 kts | 186° |
| 2026-05-04 14:27 | 4.52475 | -74.46309 | 14209 ft | 402 kts | 186° |
| 2026-05-04 14:27 | 4.49688 | -74.46675 | 14525 ft | 405 kts | 186° |
| 2026-05-04 14:28 | 4.46887 | -74.47043 | 14839 ft | 408 kts | 186° |
| 2026-05-04 14:28 | 4.44063 | -74.47416 | 15160 ft | 410 kts | 186° |
| 2026-05-04 14:28 | 4.41226 | -74.47791 | 15462 ft | 413 kts | 186° |
| 2026-05-04 14:28 | 4.38373 | -74.48167 | 15739 ft | 415 kts | 186° |
| 2026-05-04 14:29 | 4.32643 | -74.47935 | 16367 ft | 415 kts | 161° |
| 2026-05-04 14:29 | 4.27839 | -74.44861 | 17014 ft | 415 kts | 130° |
| 2026-05-04 14:30 | 4.26242 | -74.42469 | 17311 ft | 415 kts | 115° |
| 2026-05-04 14:30 | 4.25353 | -74.39744 | 17638 ft | 416 kts | 99° |
| 2026-05-04 14:30 | 4.25389 | -74.33915 | 18314 ft | 419 kts | 91° |
| 2026-05-04 14:31 | 4.25110 | -74.31009 | 18660 ft | 419 kts | 98° |
| 2026-05-04 14:31 | 4.24184 | -74.25229 | 19029 ft | 426 kts | 99° |
| 2026-05-04 14:32 | 4.23216 | -74.19382 | 19677 ft | 427 kts | 99° |
| 2026-05-04 14:32 | 4.22895 | -74.17441 | 19780 ft | 429 kts | 99° |
| 2026-05-04 14:32 | 4.22240 | -74.13482 | 20177 ft | 429 kts | 99° |
| 2026-05-04 14:32 | 4.21753 | -74.10528 | 20443 ft | 431 kts | 99° |
| 2026-05-04 14:33 | 4.21422 | -74.08521 | 20509 ft | 435 kts | 99° |
| 2026-05-04 14:33 | 4.20945 | -74.05529 | 20755 ft | 435 kts | 97° |
| 2026-05-04 14:33 | 4.20741 | -74.02504 | 21053 ft | 436 kts | 89° |
| 2026-05-04 14:33 | 4.21038 | -73.99493 | 21241 ft | 439 kts | 79° |
| 2026-05-04 14:34 | 4.21895 | -73.96526 | 21534 ft | 441 kts | 69° |
| 2026-05-04 14:34 | 4.23257 | -73.93767 | 21744 ft | 444 kts | 59° |
| 2026-05-04 14:34 | 4.25111 | -73.91290 | 22035 ft | 446 kts | 49° |
| 2026-05-04 14:34 | 4.27357 | -73.89192 | 22262 ft | 450 kts | 38° |
| 2026-05-04 14:35 | 4.30035 | -73.87489 | 22540 ft | 453 kts | 28° |
| 2026-05-04 14:35 | 4.32927 | -73.86318 | 22795 ft | 457 kts | 18° |
| 2026-05-04 14:35 | 4.36054 | -73.85689 | 23074 ft | 460 kts | 7° |
| 2026-05-04 14:35 | 4.39267 | -73.85648 | 23331 ft | 464 kts | 356° |
| 2026-05-04 14:36 | 4.42457 | -73.86216 | 23613 ft | 469 kts | 345° |
| 2026-05-04 14:36 | 4.45520 | -73.87378 | 23857 ft | 472 kts | 336° |
| 2026-05-04 14:36 | 4.48482 | -73.88824 | 24056 ft | 475 kts | 334° |
| 2026-05-04 14:36 | 4.51460 | -73.90285 | 24261 ft | 477 kts | 338° |
| 2026-05-04 14:37 | 4.54582 | -73.91390 | 24507 ft | 476 kts | 348° |
| 2026-05-04 14:37 | 4.57826 | -73.91888 | 24756 ft | 475 kts | 358° |
| 2026-05-04 14:37 | 4.61158 | -73.91908 | 25000 ft | 476 kts | 3° |
| 2026-05-04 14:37 | 4.64469 | -73.91757 | 25253 ft | 477 kts | 5° |
| 2026-05-04 14:38 | 4.67780 | -73.91525 | 25526 ft | 479 kts | 6° |
| 2026-05-04 14:38 | 4.71112 | -73.91265 | 25809 ft | 480 kts | 6° |
| 2026-05-04 14:38 | 4.74453 | -73.91007 | 26074 ft | 482 kts | 6° |
| 2026-05-04 14:38 | 4.77806 | -73.90760 | 26330 ft | 485 kts | 6° |
| 2026-05-04 14:39 | 4.81184 | -73.90524 | 26536 ft | 489 kts | 6° |
| 2026-05-04 14:39 | 4.84591 | -73.90296 | 26832 ft | 490 kts | 5° |
| 2026-05-04 14:39 | 4.87989 | -73.90074 | 27127 ft | 493 kts | 5° |
| 2026-05-04 14:40 | 4.94835 | -73.89634 | 27713 ft | 498 kts | 5° |
| 2026-05-04 14:40 | 4.98312 | -73.89412 | 27966 ft | 500 kts | 5° |
| 2026-05-04 14:40 | 5.01791 | -73.89188 | 28229 ft | 502 kts | 5° |
| 2026-05-04 14:40 | 5.05293 | -73.88962 | 28507 ft | 505 kts | 5° |
| 2026-05-04 14:41 | 5.08802 | -73.88736 | 28764 ft | 507 kts | 5° |
| 2026-05-04 14:41 | 5.12302 | -73.88510 | 29011 ft | 509 kts | 5° |
| 2026-05-04 14:41 | 5.19459 | -73.88045 | 29319 ft | 516 kts | 6° |
| 2026-05-04 14:42 | 5.26631 | -73.87579 | 29773 ft | 521 kts | 6° |
| 2026-05-04 14:42 | 5.30252 | -73.87345 | 29954 ft | 523 kts | 6° |
| 2026-05-04 14:42 | 5.33888 | -73.87110 | 30260 ft | 522 kts | 6° |
| 2026-05-04 14:43 | 5.37513 | -73.86877 | 30534 ft | 523 kts | 5° |
| 2026-05-04 14:43 | 5.41135 | -73.86644 | 30843 ft | 521 kts | 6° |
| 2026-05-04 14:43 | 5.44744 | -73.86411 | 31087 ft | 520 kts | 5° |
| 2026-05-04 14:43 | 5.48349 | -73.86148 | 31393 ft | 517 kts | 8° |
| 2026-05-04 14:44 | 5.51857 | -73.85542 | 31725 ft | 513 kts | 15° |
| 2026-05-04 14:44 | 5.55267 | -73.84440 | 32058 ft | 508 kts | 24° |
| 2026-05-04 14:44 | 5.58455 | -73.82915 | 32263 ft | 507 kts | 29° |
| 2026-05-04 14:44 | 5.61558 | -73.81248 | 32487 ft | 506 kts | 31° |
| 2026-05-04 14:45 | 5.64639 | -73.79514 | 32753 ft | 505 kts | 31° |
| 2026-05-04 14:45 | 5.67687 | -73.77764 | 33044 ft | 504 kts | 31° |
| 2026-05-04 14:45 | 5.70682 | -73.76039 | 33265 ft | 504 kts | 31° |
| 2026-05-04 14:45 | 5.73766 | -73.74268 | 33521 ft | 503 kts | 31° |
| 2026-05-04 14:46 | 5.76806 | -73.72531 | 33770 ft | 502 kts | 31° |
| 2026-05-04 14:46 | 5.79848 | -73.70801 | 33982 ft | 502 kts | 31° |
| 2026-05-04 14:46 | 5.82887 | -73.69077 | 34193 ft | 502 kts | 31° |
| 2026-05-04 14:46 | 5.85889 | -73.67377 | 34328 ft | 502 kts | 31° |
| 2026-05-04 14:47 | 5.88936 | -73.65652 | 34431 ft | 503 kts | 31° |
| 2026-05-04 14:47 | 5.91984 | -73.63927 | 34664 ft | 502 kts | 31° |
| 2026-05-04 14:47 | 5.95019 | -73.62209 | 34923 ft | 500 kts | 31° |
| 2026-05-04 14:47 | 5.98048 | -73.60495 | 35119 ft | 499 kts | 31° |
| 2026-05-04 14:48 | 6.04118 | -73.57056 | 35169 ft | 505 kts | 31° |
| 2026-05-04 14:48 | 6.10252 | -73.53577 | 35170 ft | 506 kts | 31° |
| 2026-05-04 14:49 | 6.16384 | -73.50100 | 35142 ft | 505 kts | 31° |
| 2026-05-04 14:49 | 6.22471 | -73.46649 | 35139 ft | 506 kts | 30° |
| 2026-05-04 14:50 | 6.28631 | -73.43154 | 35114 ft | 509 kts | 31° |
| 2026-05-04 14:50 | 6.34806 | -73.39648 | 35116 ft | 510 kts | 31° |
| 2026-05-04 14:51 | 6.40982 | -73.36144 | 35122 ft | 509 kts | 31° |
| 2026-05-04 14:51 | 6.47162 | -73.32635 | 35103 ft | 509 kts | 31° |
| 2026-05-04 14:52 | 6.53298 | -73.29150 | 35103 ft | 510 kts | 30° |
| 2026-05-04 14:52 | 6.59494 | -73.25630 | 35081 ft | 511 kts | 30° |
| 2026-05-04 14:53 | 6.65675 | -73.22118 | 35088 ft | 511 kts | 30° |
| 2026-05-04 14:53 | 6.71902 | -73.18579 | 35073 ft | 511 kts | 30° |
| 2026-05-04 14:54 | 6.78091 | -73.15061 | 35075 ft | 511 kts | 30° |
| 2026-05-04 14:54 | 6.84251 | -73.11557 | 35062 ft | 511 kts | 30° |
| 2026-05-04 14:55 | 6.90434 | -73.08044 | 35094 ft | 511 kts | 30° |
| 2026-05-04 14:55 | 6.96696 | -73.04591 | 35095 ft | 511 kts | 29° |
| 2026-05-04 14:56 | 7.02956 | -73.01177 | 35107 ft | 511 kts | 29° |
| 2026-05-04 14:56 | 7.09211 | -72.97752 | 35106 ft | 511 kts | 29° |
| 2026-05-04 14:57 | 7.15410 | -72.94343 | 35147 ft | 511 kts | 29° |
| 2026-05-04 14:57 | 7.21660 | -72.90902 | 35148 ft | 514 kts | 29° |
| 2026-05-04 14:58 | 7.27973 | -72.87424 | 35150 ft | 515 kts | 29° |
| 2026-05-04 14:58 | 7.34255 | -72.83965 | 35154 ft | 514 kts | 29° |
| 2026-05-04 14:59 | 7.40532 | -72.80507 | 35157 ft | 514 kts | 29° |
| 2026-05-04 15:00 | 7.49943 | -72.75319 | 35156 ft | 514 kts | 29° |
| 2026-05-04 15:00 | 7.56213 | -72.71861 | 35126 ft | 514 kts | 29° |
| 2026-05-04 15:01 | 7.65632 | -72.66667 | 35124 ft | 512 kts | 29° |
| 2026-05-04 15:01 | 7.71819 | -72.63252 | 35081 ft | 509 kts | 29° |
| 2026-05-04 15:02 | 7.78046 | -72.59814 | 35081 ft | 509 kts | 29° |
| 2026-05-04 15:02 | 7.84274 | -72.56374 | 35022 ft | 511 kts | 29° |
| 2026-05-04 15:03 | 7.90517 | -72.52926 | 35020 ft | 511 kts | 29° |
| 2026-05-04 15:03 | 7.96774 | -72.49513 | 35020 ft | 511 kts | 27° |
| 2026-05-04 15:04 | 8.03047 | -72.46314 | 35021 ft | 510 kts | 26° |
| 2026-05-04 15:04 | 8.09418 | -72.43102 | 35019 ft | 509 kts | 26° |
| 2026-05-04 15:05 | 8.15747 | -72.39880 | 35006 ft | 509 kts | 27° |
| 2026-05-04 15:05 | 8.22072 | -72.36635 | 35020 ft | 509 kts | 27° |
| 2026-05-04 15:06 | 8.28303 | -72.33206 | 34996 ft | 510 kts | 29° |
| 2026-05-04 15:07 | 8.37562 | -72.27935 | 34996 ft | 508 kts | 28° |
| 2026-05-04 15:07 | 8.43692 | -72.24487 | 34997 ft | 507 kts | 28° |
| 2026-05-04 15:08 | 8.49878 | -72.21026 | 34996 ft | 508 kts | 28° |
| 2026-05-04 15:08 | 8.56069 | -72.17566 | 34975 ft | 508 kts | 28° |
| 2026-05-04 15:09 | 8.62268 | -72.14099 | 34980 ft | 509 kts | 28° |
| 2026-05-04 15:09 | 8.68452 | -72.10637 | 34968 ft | 508 kts | 28° |
| 2026-05-04 15:10 | 8.77732 | -72.05440 | 34968 ft | 508 kts | 28° |
| 2026-05-04 15:11 | 8.86964 | -72.00268 | 34969 ft | 508 kts | 28° |
| 2026-05-04 15:11 | 8.93139 | -71.96805 | 34968 ft | 508 kts | 28° |
| 2026-05-04 15:12 | 8.99095 | -71.92965 | 34968 ft | 508 kts | 40° |
| 2026-05-04 15:12 | 9.04447 | -71.88287 | 34969 ft | 508 kts | 41° |
| 2026-05-04 15:13 | 9.09679 | -71.83480 | 34967 ft | 508 kts | 42° |
| 2026-05-04 15:13 | 9.14901 | -71.78656 | 34966 ft | 508 kts | 42° |
| 2026-05-04 15:14 | 9.20139 | -71.73840 | 34962 ft | 508 kts | 41° |
| 2026-05-04 15:14 | 9.25387 | -71.69030 | 34964 ft | 508 kts | 41° |
| 2026-05-04 15:15 | 9.30625 | -71.64229 | 34963 ft | 508 kts | 42° |
| 2026-05-04 15:15 | 9.35838 | -71.59449 | 34962 ft | 508 kts | 42° |
| 2026-05-04 15:16 | 9.43686 | -71.52246 | 34965 ft | 506 kts | 41° |
| 2026-05-04 15:17 | 9.51511 | -71.45061 | 34964 ft | 505 kts | 41° |
| 2026-05-04 15:17 | 9.59295 | -71.37908 | 34963 ft | 505 kts | 41° |
| 2026-05-04 15:18 | 9.64504 | -71.33120 | 34963 ft | 505 kts | 41° |
| 2026-05-04 15:19 | 9.72326 | -71.25925 | 34967 ft | 506 kts | 41° |
| 2026-05-04 15:19 | 9.80133 | -71.18738 | 34966 ft | 507 kts | 41° |
| 2026-05-04 15:20 | 9.84493 | -71.14728 | 34962 ft | 507 kts | 41° |
| 2026-05-04 15:20 | 9.89707 | -71.09920 | 34963 ft | 506 kts | 41° |
| 2026-05-04 15:21 | 9.94905 | -71.05125 | 34964 ft | 506 kts | 41° |
| 2026-05-04 15:22 | 10.02730 | -70.97904 | 34976 ft | 506 kts | 41° |
| 2026-05-04 15:22 | 10.10520 | -70.90713 | 34976 ft | 505 kts | 41° |
| 2026-05-04 15:23 | 10.15698 | -70.85927 | 34985 ft | 505 kts | 41° |
| 2026-05-04 15:23 | 10.20900 | -70.81121 | 34985 ft | 505 kts | 41° |
| 2026-05-04 15:24 | 10.31293 | -70.71517 | 34988 ft | 505 kts | 41° |
| 2026-05-04 15:25 | 10.36497 | -70.66716 | 34988 ft | 505 kts | 41° |
| 2026-05-04 15:26 | 10.44288 | -70.59499 | 34992 ft | 505 kts | 41° |
| 2026-05-04 15:26 | 10.52046 | -70.52307 | 34989 ft | 505 kts | 41° |
| 2026-05-04 15:27 | 10.59812 | -70.45107 | 34992 ft | 503 kts | 41° |
| 2026-05-04 15:28 | 10.67572 | -70.37911 | 34989 ft | 503 kts | 41° |
| 2026-05-04 15:29 | 10.75290 | -70.30699 | 34987 ft | 501 kts | 40° |
| 2026-05-04 15:30 | 10.93252 | -70.13955 | 34983 ft | 501 kts | 40° |
| 2026-05-04 15:31 | 11.00962 | -70.06764 | 34983 ft | 501 kts | 40° |
| 2026-05-04 15:32 | 11.13792 | -69.94816 | 34980 ft | 500 kts | 40° |
| 2026-05-04 15:34 | 11.26598 | -69.82920 | 34991 ft | 499 kts | 40° |
| 2026-05-04 15:34 | 11.34292 | -69.75761 | 34994 ft | 499 kts | 40° |
| 2026-05-04 15:35 | 11.41995 | -69.68591 | 34993 ft | 499 kts | 40° |
| 2026-05-04 15:36 | 11.49919 | -69.61698 | 34993 ft | 498 kts | 38° |
| 2026-05-04 15:36 | 11.55211 | -69.57183 | 34993 ft | 499 kts | 38° |
| 2026-05-04 15:37 | 11.60510 | -69.52619 | 34996 ft | 499 kts | 38° |
| 2026-05-04 15:37 | 11.65791 | -69.48044 | 35000 ft | 497 kts | 38° |
| 2026-05-04 15:38 | 11.71066 | -69.43467 | 35002 ft | 498 kts | 38° |
| 2026-05-04 15:38 | 11.76343 | -69.38888 | 35004 ft | 498 kts | 38° |
| 2026-05-04 15:39 | 11.81585 | -69.34338 | 35003 ft | 498 kts | 38° |
| 2026-05-04 15:40 | 11.89528 | -69.27438 | 35007 ft | 497 kts | 38° |
| 2026-05-04 15:40 | 11.94791 | -69.22874 | 35007 ft | 498 kts | 38° |
| 2026-05-04 15:41 | 12.00053 | -69.18300 | 35012 ft | 499 kts | 38° |
| 2026-05-04 15:41 | 12.05340 | -69.13701 | 35014 ft | 499 kts | 38° |
| 2026-05-04 15:42 | 12.10628 | -69.09100 | 35018 ft | 499 kts | 38° |
| 2026-05-04 15:42 | 12.15918 | -69.04496 | 35021 ft | 499 kts | 38° |
| 2026-05-04 15:43 | 12.21196 | -68.99882 | 35019 ft | 499 kts | 39° |
| 2026-05-04 15:43 | 12.26114 | -68.94938 | 35020 ft | 501 kts | 44° |
| 2026-05-04 15:44 | 12.30950 | -68.89770 | 35020 ft | 501 kts | 43° |
| 2026-05-04 15:44 | 12.35810 | -68.84662 | 35019 ft | 500 kts | 43° |
| 2026-05-04 15:45 | 12.40708 | -68.79601 | 35016 ft | 500 kts | 43° |
| 2026-05-04 15:45 | 12.45626 | -68.74544 | 35018 ft | 501 kts | 43° |
| 2026-05-04 15:46 | 12.50536 | -68.69494 | 35020 ft | 501 kts | 42° |
| 2026-05-04 15:46 | 12.55409 | -68.64476 | 35020 ft | 501 kts | 43° |
| 2026-05-04 15:47 | 12.60332 | -68.59400 | 35023 ft | 501 kts | 43° |
| 2026-05-04 15:47 | 12.65235 | -68.54340 | 35020 ft | 500 kts | 42° |
| 2026-05-04 15:48 | 12.70136 | -68.49283 | 35024 ft | 501 kts | 43° |
| 2026-05-04 15:48 | 12.77483 | -68.41695 | 35010 ft | 501 kts | 43° |
| 2026-05-04 15:49 | 12.82378 | -68.36635 | 35027 ft | 501 kts | 43° |
| 2026-05-04 15:49 | 12.87300 | -68.31540 | 35033 ft | 501 kts | 43° |
| 2026-05-04 15:50 | 12.92199 | -68.26450 | 35019 ft | 501 kts | 43° |
| 2026-05-04 15:50 | 12.97104 | -68.21354 | 35026 ft | 501 kts | 43° |
| 2026-05-04 15:51 | 13.02000 | -68.16269 | 35027 ft | 502 kts | 43° |
| 2026-05-04 15:51 | 13.06911 | -68.11166 | 35029 ft | 502 kts | 43° |
| 2026-05-04 15:52 | 13.11808 | -68.06074 | 35035 ft | 502 kts | 43° |
| 2026-05-04 15:52 | 13.16712 | -68.00971 | 35043 ft | 502 kts | 43° |
| 2026-05-04 15:53 | 13.21613 | -67.95867 | 35027 ft | 502 kts | 43° |
| 2026-05-04 15:53 | 13.26478 | -67.90808 | 35029 ft | 503 kts | 43° |
| 2026-05-04 15:54 | 13.31467 | -67.85719 | 35029 ft | 503 kts | 43° |
| 2026-05-04 15:54 | 13.36400 | -67.80614 | 35043 ft | 504 kts | 43° |
| 2026-05-04 15:55 | 13.41312 | -67.75483 | 35028 ft | 504 kts | 43° |
| 2026-05-04 15:55 | 13.46228 | -67.70349 | 35031 ft | 504 kts | 43° |
| 2026-05-04 15:56 | 13.51149 | -67.65215 | 35027 ft | 504 kts | 43° |
| 2026-05-04 15:56 | 13.56066 | -67.60086 | 35044 ft | 504 kts | 43° |
| 2026-05-04 15:57 | 13.60953 | -67.54985 | 35033 ft | 504 kts | 43° |
| 2026-05-04 15:57 | 13.65870 | -67.49851 | 35049 ft | 504 kts | 43° |
| 2026-05-04 15:58 | 13.70880 | -67.44820 | 35035 ft | 503 kts | 40° |
| 2026-05-04 15:58 | 13.75973 | -67.39892 | 35041 ft | 503 kts | 40° |
| 2026-05-04 15:59 | 13.81058 | -67.34953 | 35035 ft | 503 kts | 41° |
| 2026-05-04 15:59 | 13.86131 | -67.29986 | 35038 ft | 504 kts | 41° |
| 2026-05-04 16:00 | 13.91211 | -67.24994 | 35045 ft | 505 kts | 41° |
| 2026-05-04 16:00 | 13.96277 | -67.20011 | 35043 ft | 505 kts | 41° |
| 2026-05-04 16:01 | 14.01337 | -67.15031 | 35044 ft | 504 kts | 41° |
| 2026-05-04 16:01 | 14.06409 | -67.10039 | 35040 ft | 504 kts | 41° |
| 2026-05-04 16:02 | 14.11482 | -67.05041 | 35037 ft | 504 kts | 41° |
| 2026-05-04 16:03 | 14.19096 | -66.97536 | 35043 ft | 505 kts | 41° |
| 2026-05-04 16:03 | 14.24143 | -66.92557 | 35043 ft | 505 kts | 41° |
| 2026-05-04 16:04 | 14.29227 | -66.87537 | 35045 ft | 505 kts | 41° |
| 2026-05-04 16:04 | 14.36825 | -66.80029 | 35045 ft | 504 kts | 41° |
| 2026-05-04 16:05 | 14.41902 | -66.75008 | 35044 ft | 504 kts | 41° |
| 2026-05-04 16:06 | 14.49467 | -66.67520 | 35048 ft | 504 kts | 41° |
| 2026-05-04 16:07 | 14.59584 | -66.57498 | 35044 ft | 504 kts | 41° |
| 2026-05-04 16:08 | 14.68850 | -66.48305 | 35043 ft | 503 kts | 41° |
| 2026-05-04 16:09 | 14.81453 | -66.35780 | 35050 ft | 502 kts | 42° |
| 2026-05-04 16:10 | 14.91500 | -66.25784 | 35048 ft | 502 kts | 42° |
| 2026-05-04 16:11 | 15.01558 | -66.15761 | 35048 ft | 501 kts | 41° |
| 2026-05-04 16:12 | 15.16551 | -66.00796 | 35053 ft | 500 kts | 41° |
| 2026-05-04 16:13 | 15.26564 | -65.90786 | 35052 ft | 500 kts | 42° |
| 2026-05-04 16:14 | 15.36592 | -65.80814 | 35053 ft | 499 kts | 41° |
| 2026-05-04 16:16 | 15.49135 | -65.68390 | 35053 ft | 498 kts | 42° |
| 2026-05-04 16:17 | 15.61620 | -65.55996 | 35055 ft | 497 kts | 41° |
| 2026-05-04 16:18 | 15.71578 | -65.46102 | 35053 ft | 495 kts | 41° |
| 2026-05-04 16:19 | 15.84042 | -65.33746 | 35058 ft | 495 kts | 41° |
| 2026-05-04 16:20 | 15.96490 | -65.21384 | 35057 ft | 496 kts | 41° |
| 2026-05-04 16:22 | 16.08948 | -65.08989 | 35062 ft | 496 kts | 41° |
| 2026-05-04 16:23 | 16.23912 | -64.94072 | 35058 ft | 497 kts | 41° |
| 2026-05-04 16:25 | 16.38870 | -64.79114 | 35059 ft | 497 kts | 42° |
| 2026-05-04 16:26 | 16.56287 | -64.61659 | 35061 ft | 497 kts | 42° |
| 2026-05-04 16:28 | 16.68727 | -64.49164 | 35064 ft | 497 kts | 42° |
| 2026-05-04 16:29 | 16.86168 | -64.31605 | 35064 ft | 499 kts | 42° |
| 2026-05-04 16:31 | 16.98654 | -64.19005 | 35065 ft | 499 kts | 42° |
| 2026-05-04 16:32 | 17.13614 | -64.03877 | 35070 ft | 500 kts | 42° |
| 2026-05-04 16:33 | 17.23597 | -63.93763 | 35069 ft | 499 kts | 42° |
| 2026-05-04 16:34 | 17.31079 | -63.86159 | 35070 ft | 500 kts | 42° |
| 2026-05-04 16:35 | 17.46033 | -63.70948 | 35070 ft | 500 kts | 42° |
| 2026-05-04 16:36 | 17.53518 | -63.63329 | 35073 ft | 500 kts | 42° |
| 2026-05-04 16:37 | 17.60995 | -63.55699 | 35075 ft | 501 kts | 42° |
| 2026-05-04 16:38 | 17.70988 | -63.45487 | 35072 ft | 501 kts | 42° |
| 2026-05-04 16:39 | 17.83438 | -63.32746 | 35083 ft | 500 kts | 42° |
| 2026-05-04 16:40 | 17.93412 | -63.22522 | 35096 ft | 501 kts | 43° |
| 2026-05-04 16:41 | 18.05863 | -63.09738 | 35103 ft | 501 kts | 42° |
| 2026-05-04 16:43 | 18.18347 | -62.96922 | 35072 ft | 502 kts | 42° |
| 2026-05-04 16:43 | 18.25813 | -62.89244 | 35075 ft | 502 kts | 42° |
| 2026-05-04 16:45 | 18.40788 | -62.73814 | 35087 ft | 502 kts | 42° |
| 2026-05-04 16:46 | 18.53222 | -62.60975 | 35084 ft | 502 kts | 42° |
| 2026-05-04 16:47 | 18.63196 | -62.50654 | 35093 ft | 502 kts | 42° |
| 2026-05-04 16:48 | 18.73128 | -62.40358 | 35089 ft | 503 kts | 43° |
| 2026-05-04 16:49 | 18.83140 | -62.29964 | 35091 ft | 503 kts | 43° |
| 2026-05-04 16:50 | 18.93082 | -62.19622 | 35092 ft | 503 kts | 43° |
| 2026-05-04 16:51 | 19.00558 | -62.11833 | 35094 ft | 504 kts | 43° |
| 2026-05-04 16:52 | 19.10543 | -62.01414 | 35097 ft | 504 kts | 42° |
| 2026-05-04 16:53 | 19.17996 | -61.93626 | 35096 ft | 504 kts | 43° |
| 2026-05-04 16:54 | 19.27968 | -61.83188 | 35097 ft | 503 kts | 43° |
| 2026-05-04 16:55 | 19.36199 | -61.71294 | 35094 ft | 509 kts | 64° |
| 2026-05-04 16:55 | 19.38469 | -61.65533 | 35101 ft | 510 kts | 66° |
| 2026-05-04 16:56 | 19.44982 | -61.48037 | 35100 ft | 511 kts | 66° |
| 2026-05-04 16:57 | 19.48912 | -61.37592 | 35100 ft | 511 kts | 66° |
| 2026-05-04 16:58 | 19.54173 | -61.23601 | 35103 ft | 511 kts | 66° |
| 2026-05-04 17:00 | 19.62033 | -61.02620 | 35104 ft | 511 kts | 66° |
| 2026-05-04 17:01 | 19.68582 | -60.85066 | 35099 ft | 511 kts | 66° |
| 2026-05-04 17:02 | 19.73792 | -60.71062 | 35102 ft | 511 kts | 67° |
| 2026-05-04 17:03 | 19.77702 | -60.60526 | 35099 ft | 511 kts | 67° |
| 2026-05-04 17:03 | 19.81603 | -60.49995 | 35108 ft | 511 kts | 67° |
| 2026-05-04 17:04 | 19.86783 | -60.35974 | 35104 ft | 511 kts | 67° |
| 2026-05-04 17:05 | 19.91964 | -60.21911 | 35109 ft | 511 kts | 67° |
| 2026-05-04 17:06 | 19.95837 | -60.11372 | 35108 ft | 510 kts | 67° |
| 2026-05-04 17:07 | 19.99267 | -60.02023 | 35110 ft | 510 kts | 67° |
| 2026-05-04 17:07 | 20.02482 | -59.93897 | 35111 ft | 510 kts | 63° |
| 2026-05-04 17:08 | 20.07121 | -59.83722 | 35112 ft | 509 kts | 62° |
| 2026-05-04 17:09 | 20.10149 | -59.76972 | 35108 ft | 509 kts | 63° |
| 2026-05-04 17:09 | 20.13152 | -59.70157 | 35111 ft | 509 kts | 63° |
| 2026-05-04 17:10 | 20.20614 | -59.53110 | 35113 ft | 508 kts | 63° |
| 2026-05-04 17:11 | 20.23596 | -59.46289 | 35111 ft | 509 kts | 63° |
| 2026-05-04 17:12 | 20.28073 | -59.36034 | 35117 ft | 509 kts | 63° |
| 2026-05-04 17:13 | 20.35507 | -59.18961 | 35119 ft | 507 kts | 63° |
| 2026-05-04 17:14 | 20.41418 | -59.05350 | 35122 ft | 508 kts | 63° |
| 2026-05-04 17:15 | 20.45858 | -58.95101 | 35128 ft | 506 kts | 63° |
| 2026-05-04 17:16 | 20.51759 | -58.81448 | 35111 ft | 506 kts | 63° |
| 2026-05-04 17:17 | 20.57649 | -58.67788 | 35126 ft | 506 kts | 63° |
| 2026-05-04 17:18 | 20.63518 | -58.54139 | 35131 ft | 507 kts | 63° |
| 2026-05-04 17:19 | 20.69386 | -58.40456 | 35117 ft | 506 kts | 63° |
| 2026-05-04 17:20 | 20.75232 | -58.26791 | 35118 ft | 505 kts | 63° |
| 2026-05-04 17:20 | 20.79595 | -58.16569 | 35124 ft | 505 kts | 63° |
| 2026-05-04 17:21 | 20.85418 | -58.02894 | 35123 ft | 505 kts | 63° |
| 2026-05-04 17:22 | 20.88325 | -57.96053 | 35121 ft | 505 kts | 64° |
| 2026-05-04 17:23 | 20.94094 | -57.82451 | 35124 ft | 503 kts | 64° |
| 2026-05-04 17:24 | 20.98437 | -57.72188 | 35129 ft | 503 kts | 64° |
| 2026-05-04 17:25 | 21.04218 | -57.58496 | 35123 ft | 504 kts | 64° |
| 2026-05-04 17:26 | 21.09978 | -57.44814 | 35123 ft | 503 kts | 64° |
| 2026-05-04 17:27 | 21.17151 | -57.27727 | 35125 ft | 502 kts | 64° |
| 2026-05-04 17:28 | 21.22869 | -57.14065 | 35123 ft | 502 kts | 64° |
| 2026-05-04 17:29 | 21.31395 | -56.93625 | 35128 ft | 501 kts | 64° |
| 2026-05-04 17:31 | 21.38494 | -56.76541 | 35125 ft | 501 kts | 64° |
| 2026-05-04 17:32 | 21.45549 | -56.59507 | 35126 ft | 501 kts | 64° |
| 2026-05-04 17:33 | 21.51186 | -56.45851 | 35125 ft | 499 kts | 64° |
| 2026-05-04 17:34 | 21.56806 | -56.32205 | 35123 ft | 500 kts | 64° |
| 2026-05-04 17:35 | 21.63793 | -56.15181 | 35129 ft | 498 kts | 64° |
| 2026-05-04 17:36 | 21.66583 | -56.08368 | 35127 ft | 498 kts | 64° |
| 2026-05-04 17:36 | 21.69369 | -56.01555 | 35127 ft | 498 kts | 64° |
| 2026-05-04 17:37 | 21.72161 | -55.94718 | 35127 ft | 499 kts | 64° |
| 2026-05-04 17:37 | 21.74934 | -55.87918 | 35127 ft | 499 kts | 64° |
| 2026-05-04 17:38 | 21.77707 | -55.81107 | 35131 ft | 499 kts | 64° |
| 2026-05-04 17:38 | 21.80498 | -55.74242 | 35128 ft | 498 kts | 64° |
| 2026-05-04 17:39 | 21.84658 | -55.63995 | 35130 ft | 497 kts | 64° |
| 2026-05-04 17:39 | 21.87424 | -55.57170 | 35131 ft | 498 kts | 64° |
| 2026-05-04 17:40 | 21.90195 | -55.50322 | 35132 ft | 498 kts | 64° |
| 2026-05-04 17:40 | 21.92956 | -55.43490 | 35129 ft | 497 kts | 64° |
| 2026-05-04 17:41 | 21.95703 | -55.36681 | 35127 ft | 497 kts | 64° |
| 2026-05-04 17:41 | 21.98443 | -55.29880 | 35129 ft | 497 kts | 64° |
| 2026-05-04 17:42 | 22.01208 | -55.23009 | 35131 ft | 496 kts | 64° |
| 2026-05-04 17:42 | 22.03920 | -55.16258 | 35130 ft | 495 kts | 64° |
| 2026-05-04 17:43 | 22.06666 | -55.09416 | 35125 ft | 496 kts | 64° |
| 2026-05-04 17:43 | 22.08944 | -55.03731 | 35127 ft | 496 kts | 64° |
| 2026-05-04 17:44 | 22.11675 | -54.96905 | 35129 ft | 496 kts | 64° |
| 2026-05-04 17:44 | 22.14405 | -54.90074 | 35129 ft | 495 kts | 64° |
| 2026-05-04 17:45 | 22.17128 | -54.83250 | 35126 ft | 495 kts | 64° |
| 2026-05-04 17:45 | 22.19851 | -54.76419 | 35130 ft | 495 kts | 64° |
| 2026-05-04 17:46 | 22.22570 | -54.69585 | 35129 ft | 495 kts | 65° |
| 2026-05-04 17:46 | 22.25269 | -54.62791 | 35130 ft | 495 kts | 65° |
| 2026-05-04 17:47 | 22.27985 | -54.55947 | 35128 ft | 495 kts | 65° |
| 2026-05-04 17:47 | 22.30698 | -54.49099 | 35135 ft | 495 kts | 65° |
| 2026-05-04 17:48 | 22.33394 | -54.42284 | 35128 ft | 495 kts | 65° |
| 2026-05-04 17:48 | 22.36108 | -54.35413 | 35127 ft | 495 kts | 65° |
| 2026-05-04 17:49 | 22.38791 | -54.28611 | 35127 ft | 495 kts | 65° |
| 2026-05-04 17:49 | 22.41494 | -54.21749 | 35135 ft | 495 kts | 65° |
| 2026-05-04 17:50 | 22.44188 | -54.14899 | 35135 ft | 495 kts | 65° |
| 2026-05-04 17:50 | 22.46881 | -54.08043 | 35135 ft | 495 kts | 65° |
| 2026-05-04 17:51 | 22.49570 | -54.01186 | 35127 ft | 495 kts | 65° |
| 2026-05-04 17:51 | 22.52231 | -53.94391 | 35128 ft | 494 kts | 65° |
| 2026-05-04 17:52 | 22.54916 | -53.87525 | 35133 ft | 494 kts | 65° |
| 2026-05-04 17:52 | 22.57593 | -53.80670 | 35131 ft | 495 kts | 65° |
| 2026-05-04 17:53 | 22.60267 | -53.73811 | 35131 ft | 495 kts | 65° |
| 2026-05-04 17:53 | 22.62918 | -53.67000 | 35132 ft | 493 kts | 65° |
| 2026-05-04 17:54 | 22.65581 | -53.60148 | 35131 ft | 493 kts | 65° |
| 2026-05-04 17:54 | 22.68238 | -53.53304 | 35128 ft | 493 kts | 65° |
| 2026-05-04 17:55 | 22.70894 | -53.46451 | 35133 ft | 494 kts | 65° |
| 2026-05-04 17:55 | 22.73554 | -53.39579 | 35129 ft | 494 kts | 65° |
| 2026-05-04 17:56 | 22.76209 | -53.32709 | 35134 ft | 494 kts | 65° |
| 2026-05-04 17:56 | 22.78863 | -53.25828 | 35137 ft | 494 kts | 65° |
| 2026-05-04 17:57 | 22.81508 | -53.18963 | 35139 ft | 493 kts | 65° |
| 2026-05-04 17:57 | 22.84134 | -53.12136 | 35137 ft | 493 kts | 65° |
| 2026-05-04 17:58 | 22.86771 | -53.05271 | 35136 ft | 493 kts | 65° |
| 2026-05-04 17:58 | 22.89402 | -52.98411 | 35140 ft | 493 kts | 65° |
| 2026-05-04 17:59 | 22.92032 | -52.91545 | 35136 ft | 492 kts | 65° |
| 2026-05-04 18:00 | 22.95965 | -52.81256 | 35132 ft | 492 kts | 65° |
| 2026-05-04 18:00 | 22.98564 | -52.74442 | 35140 ft | 492 kts | 65° |
| 2026-05-04 18:01 | 23.01196 | -52.67534 | 35140 ft | 491 kts | 65° |
| 2026-05-04 18:01 | 23.03808 | -52.60667 | 35135 ft | 492 kts | 65° |
| 2026-05-04 18:02 | 23.07718 | -52.50368 | 35141 ft | 492 kts | 65° |
| 2026-05-04 18:02 | 23.10307 | -52.43533 | 35130 ft | 491 kts | 65° |
| 2026-05-04 18:03 | 23.12906 | -52.36665 | 35140 ft | 491 kts | 65° |
| 2026-05-04 18:03 | 23.15495 | -52.29813 | 35137 ft | 491 kts | 65° |
| 2026-05-04 18:04 | 23.18073 | -52.22976 | 35138 ft | 491 kts | 65° |
| 2026-05-04 18:05 | 23.21951 | -52.12675 | 35135 ft | 491 kts | 65° |
| 2026-05-04 18:05 | 23.24533 | -52.05803 | 35142 ft | 491 kts | 65° |
| 2026-05-04 18:06 | 23.28397 | -51.95498 | 35135 ft | 490 kts | 65° |
| 2026-05-04 18:06 | 23.30966 | -51.88634 | 35135 ft | 490 kts | 65° |
| 2026-05-04 18:07 | 23.33538 | -51.81754 | 35134 ft | 491 kts | 65° |
| 2026-05-04 18:07 | 23.36103 | -51.74877 | 35138 ft | 490 kts | 65° |
| 2026-05-04 18:08 | 23.38665 | -51.68000 | 35141 ft | 490 kts | 65° |
| 2026-05-04 18:08 | 23.41222 | -51.61127 | 35141 ft | 490 kts | 65° |
| 2026-05-04 18:09 | 23.46309 | -51.47417 | 35141 ft | 489 kts | 65° |
| 2026-05-04 18:10 | 23.48856 | -51.40539 | 35138 ft | 489 kts | 65° |
| 2026-05-04 18:10 | 23.51398 | -51.33660 | 35141 ft | 489 kts | 66° |
| 2026-05-04 18:11 | 23.53937 | -51.26781 | 35140 ft | 488 kts | 65° |
| 2026-05-04 18:11 | 23.56465 | -51.19919 | 35140 ft | 488 kts | 66° |
| 2026-05-04 18:12 | 23.58979 | -51.13086 | 35141 ft | 489 kts | 66° |
| 2026-05-04 18:12 | 23.61509 | -51.06198 | 35140 ft | 489 kts | 66° |
| 2026-05-04 18:13 | 23.64040 | -50.99297 | 35140 ft | 489 kts | 66° |
| 2026-05-04 18:14 | 23.67830 | -50.88942 | 35140 ft | 489 kts | 66° |
| 2026-05-04 18:14 | 23.70332 | -50.82090 | 35140 ft | 488 kts | 66° |
| 2026-05-04 18:15 | 23.75357 | -50.68303 | 35140 ft | 489 kts | 66° |
| 2026-05-04 18:16 | 23.77870 | -50.61389 | 35138 ft | 489 kts | 66° |
| 2026-05-04 18:16 | 23.80366 | -50.54510 | 35138 ft | 488 kts | 66° |
| 2026-05-04 18:17 | 23.84100 | -50.44202 | 35137 ft | 488 kts | 66° |
| 2026-05-04 18:18 | 23.87841 | -50.33848 | 35140 ft | 488 kts | 66° |
| 2026-05-04 18:18 | 23.90334 | -50.26934 | 35143 ft | 488 kts | 66° |
| 2026-05-04 18:19 | 23.94053 | -50.16601 | 35140 ft | 487 kts | 66° |
| 2026-05-04 18:19 | 23.96533 | -50.09695 | 35143 ft | 486 kts | 66° |
| 2026-05-04 18:20 | 23.99001 | -50.02812 | 35144 ft | 487 kts | 66° |
| 2026-05-04 18:20 | 24.01519 | -49.96014 | 35147 ft | 487 kts | 63° |
| 2026-05-04 18:21 | 24.04403 | -49.89284 | 35146 ft | 485 kts | 62° |
| 2026-05-04 18:21 | 24.07308 | -49.82632 | 35146 ft | 485 kts | 62° |
| 2026-05-04 18:22 | 24.10166 | -49.75944 | 35143 ft | 485 kts | 63° |
| 2026-05-04 18:22 | 24.12978 | -49.69270 | 35144 ft | 485 kts | 63° |
| 2026-05-04 18:23 | 24.15795 | -49.62553 | 35143 ft | 485 kts | 63° |
| 2026-05-04 18:23 | 24.18614 | -49.55827 | 35141 ft | 486 kts | 63° |
| 2026-05-04 18:24 | 24.21427 | -49.49108 | 35145 ft | 485 kts | 63° |
| 2026-05-04 18:24 | 24.24220 | -49.42428 | 35146 ft | 484 kts | 63° |
| 2026-05-04 18:25 | 24.27033 | -49.35694 | 35147 ft | 483 kts | 63° |
| 2026-05-04 18:25 | 24.29831 | -49.28984 | 35147 ft | 483 kts | 62° |
| 2026-05-04 18:26 | 24.32619 | -49.22285 | 35145 ft | 482 kts | 63° |
| 2026-05-04 18:26 | 24.35384 | -49.15636 | 35145 ft | 482 kts | 63° |
| 2026-05-04 18:27 | 24.38165 | -49.08935 | 35146 ft | 482 kts | 63° |
| 2026-05-04 18:27 | 24.40943 | -49.02232 | 35143 ft | 482 kts | 62° |
| 2026-05-04 18:28 | 24.43718 | -48.95528 | 35146 ft | 482 kts | 62° |
| 2026-05-04 18:28 | 24.46485 | -48.88832 | 35146 ft | 482 kts | 63° |
| 2026-05-04 18:29 | 24.49237 | -48.82162 | 35146 ft | 482 kts | 63° |
| 2026-05-04 18:29 | 24.52003 | -48.75448 | 35146 ft | 482 kts | 63° |
| 2026-05-04 18:30 | 24.56148 | -48.65367 | 35148 ft | 483 kts | 63° |
| 2026-05-04 18:31 | 24.58909 | -48.58639 | 35146 ft | 482 kts | 63° |
| 2026-05-04 18:31 | 24.61196 | -48.53061 | 35149 ft | 482 kts | 63° |
| 2026-05-04 18:32 | 24.64397 | -48.45237 | 35149 ft | 482 kts | 63° |
| 2026-05-04 18:32 | 24.66698 | -48.39605 | 35149 ft | 482 kts | 63° |
| 2026-05-04 18:33 | 24.69890 | -48.31781 | 35145 ft | 482 kts | 63° |
| 2026-05-04 18:33 | 24.72188 | -48.26141 | 35146 ft | 482 kts | 63° |
| 2026-05-04 18:34 | 24.74916 | -48.19433 | 35145 ft | 482 kts | 63° |
| 2026-05-04 18:34 | 24.77637 | -48.12733 | 35146 ft | 481 kts | 63° |
| 2026-05-04 18:35 | 24.80367 | -48.06002 | 35145 ft | 482 kts | 63° |
| 2026-05-04 18:35 | 24.83103 | -47.99247 | 35148 ft | 482 kts | 62° |
| 2026-05-04 18:36 | 24.85826 | -47.92508 | 35144 ft | 481 kts | 63° |
| 2026-05-04 18:36 | 24.88546 | -47.85771 | 35146 ft | 481 kts | 63° |
| 2026-05-04 18:37 | 24.91260 | -47.79037 | 35152 ft | 481 kts | 63° |
| 2026-05-04 18:37 | 24.93947 | -47.72361 | 35146 ft | 481 kts | 63° |
| 2026-05-04 18:38 | 24.96664 | -47.65598 | 35146 ft | 481 kts | 63° |
| 2026-05-04 18:38 | 24.99370 | -47.58850 | 35149 ft | 481 kts | 62° |
| 2026-05-04 18:39 | 25.02049 | -47.52161 | 35146 ft | 480 kts | 63° |
| 2026-05-04 18:39 | 25.04764 | -47.45372 | 35146 ft | 480 kts | 63° |
| 2026-05-04 18:40 | 25.07459 | -47.38624 | 35147 ft | 481 kts | 63° |
| 2026-05-04 18:40 | 25.10135 | -47.31909 | 35148 ft | 480 kts | 62° |
| 2026-05-04 18:41 | 25.12807 | -47.25195 | 35149 ft | 480 kts | 62° |
| 2026-05-04 18:41 | 25.15501 | -47.18418 | 35149 ft | 480 kts | 63° |
| 2026-05-04 18:42 | 25.18178 | -47.11670 | 35146 ft | 480 kts | 62° |
| 2026-05-04 18:42 | 25.20857 | -47.04909 | 35144 ft | 480 kts | 62° |
| 2026-05-04 18:43 | 25.23514 | -46.98188 | 35146 ft | 480 kts | 62° |
| 2026-05-04 18:43 | 25.26203 | -46.91378 | 35145 ft | 480 kts | 62° |
| 2026-05-04 18:44 | 25.28856 | -46.84648 | 35148 ft | 480 kts | 62° |
| 2026-05-04 18:44 | 25.31525 | -46.77869 | 35145 ft | 481 kts | 62° |
| 2026-05-04 18:45 | 25.34190 | -46.71087 | 35143 ft | 481 kts | 62° |
| 2026-05-04 18:45 | 25.36841 | -46.64330 | 35149 ft | 481 kts | 63° |
| 2026-05-04 18:46 | 25.39510 | -46.57516 | 35148 ft | 481 kts | 63° |
| 2026-05-04 18:46 | 25.42168 | -46.50722 | 35147 ft | 481 kts | 62° |
| 2026-05-04 18:47 | 25.44822 | -46.43924 | 35145 ft | 481 kts | 63° |
| 2026-05-04 18:47 | 25.47456 | -46.37166 | 35146 ft | 481 kts | 63° |
| 2026-05-04 18:48 | 25.50102 | -46.30367 | 35145 ft | 480 kts | 62° |
| 2026-05-04 18:48 | 25.52745 | -46.23565 | 35142 ft | 480 kts | 62° |
| 2026-05-04 18:49 | 25.55367 | -46.16805 | 35150 ft | 480 kts | 62° |
| 2026-05-04 18:49 | 25.58012 | -46.09977 | 35145 ft | 480 kts | 62° |
| 2026-05-04 18:50 | 25.60624 | -46.03221 | 35146 ft | 480 kts | 62° |
| 2026-05-04 18:50 | 25.63249 | -45.96421 | 35152 ft | 480 kts | 62° |
| 2026-05-04 18:51 | 25.65871 | -45.89618 | 35149 ft | 480 kts | 62° |
| 2026-05-04 18:51 | 25.68492 | -45.82808 | 35133 ft | 480 kts | 62° |
| 2026-05-04 18:52 | 25.71106 | -45.76002 | 35138 ft | 480 kts | 62° |
| 2026-05-04 18:52 | 25.73719 | -45.69187 | 35136 ft | 480 kts | 62° |
| 2026-05-04 18:53 | 25.76314 | -45.62411 | 35153 ft | 480 kts | 62° |
| 2026-05-04 18:53 | 25.78923 | -45.55587 | 35143 ft | 480 kts | 62° |
| 2026-05-04 18:54 | 25.81528 | -45.48759 | 35141 ft | 480 kts | 62° |
| 2026-05-04 18:54 | 25.84133 | -45.41922 | 35147 ft | 480 kts | 62° |
| 2026-05-04 18:55 | 25.86736 | -45.35077 | 35143 ft | 481 kts | 62° |
| 2026-05-04 18:55 | 25.90632 | -45.24811 | 35138 ft | 481 kts | 62° |
| 2026-05-04 18:56 | 25.93210 | -45.18005 | 35146 ft | 481 kts | 62° |
| 2026-05-04 18:56 | 25.95803 | -45.11149 | 35147 ft | 481 kts | 62° |
| 2026-05-04 18:57 | 25.98394 | -45.04283 | 35141 ft | 481 kts | 62° |
| 2026-05-04 18:57 | 26.00999 | -44.97428 | 35138 ft | 480 kts | 61° |
| 2026-05-04 18:58 | 26.03831 | -44.90714 | 35139 ft | 479 kts | 59° |
| 2026-05-04 18:58 | 26.06730 | -44.84054 | 35141 ft | 479 kts | 59° |
| 2026-05-04 18:59 | 26.09604 | -44.77352 | 35145 ft | 479 kts | 60° |
| 2026-05-04 18:59 | 26.12429 | -44.70676 | 35141 ft | 480 kts | 60° |
| 2026-05-04 19:00 | 26.15269 | -44.63932 | 35141 ft | 480 kts | 60° |
| 2026-05-04 19:00 | 26.18098 | -44.57207 | 35147 ft | 480 kts | 60° |
| 2026-05-04 19:01 | 26.20911 | -44.50510 | 35140 ft | 480 kts | 60° |
| 2026-05-04 19:01 | 26.23723 | -44.43808 | 35139 ft | 480 kts | 60° |
| 2026-05-04 19:02 | 26.26561 | -44.37032 | 35140 ft | 480 kts | 60° |
| 2026-05-04 19:02 | 26.29383 | -44.30286 | 35138 ft | 480 kts | 60° |
| 2026-05-04 19:03 | 26.32197 | -44.23546 | 35138 ft | 480 kts | 60° |
| 2026-05-04 19:03 | 26.35026 | -44.16760 | 35138 ft | 481 kts | 60° |
| 2026-05-04 19:04 | 26.37842 | -44.09993 | 35139 ft | 481 kts | 60° |
| 2026-05-04 19:04 | 26.40639 | -44.03263 | 35140 ft | 481 kts | 60° |
| 2026-05-04 19:05 | 26.43452 | -43.96483 | 35136 ft | 481 kts | 60° |
| 2026-05-04 19:05 | 26.46253 | -43.89720 | 35140 ft | 482 kts | 60° |
| 2026-05-04 19:06 | 26.49071 | -43.82905 | 35142 ft | 482 kts | 60° |
| 2026-05-04 19:06 | 26.51878 | -43.76106 | 35138 ft | 482 kts | 60° |
| 2026-05-04 19:07 | 26.54684 | -43.69298 | 35140 ft | 482 kts | 60° |
| 2026-05-04 19:07 | 26.57487 | -43.62485 | 35143 ft | 482 kts | 60° |
| 2026-05-04 19:08 | 26.60291 | -43.55660 | 35141 ft | 483 kts | 60° |
| 2026-05-04 19:08 | 26.63075 | -43.48873 | 35136 ft | 483 kts | 60° |
| 2026-05-04 19:09 | 26.65872 | -43.42040 | 35143 ft | 483 kts | 60° |
| 2026-05-04 19:09 | 26.68672 | -43.35191 | 35145 ft | 484 kts | 60° |
| 2026-05-04 19:10 | 26.71473 | -43.28327 | 35144 ft | 484 kts | 60° |
| 2026-05-04 19:10 | 26.74265 | -43.21473 | 35128 ft | 484 kts | 60° |
| 2026-05-04 19:11 | 26.77041 | -43.14647 | 35129 ft | 484 kts | 60° |
| 2026-05-04 19:11 | 26.79824 | -43.07795 | 35128 ft | 484 kts | 60° |
| 2026-05-04 19:12 | 26.84000 | -42.97490 | 35134 ft | 484 kts | 60° |
| 2026-05-04 19:13 | 26.86778 | -42.90620 | 35146 ft | 485 kts | 60° |
| 2026-05-04 19:13 | 26.89555 | -42.83739 | 35130 ft | 485 kts | 60° |
| 2026-05-04 19:14 | 26.92330 | -42.76853 | 35131 ft | 485 kts | 60° |
| 2026-05-04 19:14 | 26.95088 | -42.69998 | 35132 ft | 485 kts | 60° |
| 2026-05-04 19:15 | 26.97877 | -42.63053 | 35133 ft | 485 kts | 60° |
| 2026-05-04 19:15 | 27.00626 | -42.56198 | 35133 ft | 485 kts | 60° |
| 2026-05-04 19:16 | 27.03391 | -42.49291 | 35134 ft | 486 kts | 60° |
| 2026-05-04 19:16 | 27.06158 | -42.42364 | 35135 ft | 486 kts | 60° |
| 2026-05-04 19:17 | 27.08921 | -42.35438 | 35131 ft | 486 kts | 60° |
| 2026-05-04 19:17 | 27.11678 | -42.28515 | 35128 ft | 486 kts | 60° |
| 2026-05-04 19:18 | 27.14433 | -42.21585 | 35133 ft | 486 kts | 60° |
| 2026-05-04 19:18 | 27.17168 | -42.14692 | 35135 ft | 486 kts | 60° |
| 2026-05-04 19:19 | 27.19921 | -42.07742 | 35128 ft | 486 kts | 60° |
| 2026-05-04 19:19 | 27.22669 | -42.00793 | 35128 ft | 486 kts | 60° |
| 2026-05-04 19:20 | 27.25409 | -41.93852 | 35120 ft | 487 kts | 60° |
| 2026-05-04 19:20 | 27.28155 | -41.86882 | 35126 ft | 487 kts | 61° |
| 2026-05-04 19:21 | 27.30895 | -41.79917 | 35133 ft | 487 kts | 61° |
| 2026-05-04 19:21 | 27.33174 | -41.74115 | 35127 ft | 487 kts | 61° |
| 2026-05-04 19:22 | 27.35908 | -41.67143 | 35124 ft | 487 kts | 61° |
| 2026-05-04 19:22 | 27.38640 | -41.60162 | 35126 ft | 487 kts | 61° |
| 2026-05-04 19:23 | 27.41368 | -41.53182 | 35128 ft | 487 kts | 61° |
| 2026-05-04 19:23 | 27.44082 | -41.46225 | 35124 ft | 488 kts | 61° |
| 2026-05-04 19:24 | 27.46809 | -41.39220 | 35123 ft | 488 kts | 61° |
| 2026-05-04 19:24 | 27.49535 | -41.32206 | 35123 ft | 488 kts | 61° |
| 2026-05-04 19:25 | 27.52257 | -41.25190 | 35123 ft | 488 kts | 61° |
| 2026-05-04 19:25 | 27.54979 | -41.18162 | 35124 ft | 489 kts | 61° |
| 2026-05-04 19:26 | 27.57676 | -41.11185 | 35123 ft | 489 kts | 61° |
| 2026-05-04 19:26 | 27.60376 | -41.04190 | 35121 ft | 489 kts | 61° |
| 2026-05-04 19:27 | 27.63097 | -40.97124 | 35119 ft | 489 kts | 61° |
| 2026-05-04 19:27 | 27.65807 | -40.90076 | 35126 ft | 489 kts | 61° |
| 2026-05-04 19:28 | 27.68511 | -40.83031 | 35119 ft | 490 kts | 61° |
| 2026-05-04 19:28 | 27.71227 | -40.75944 | 35119 ft | 490 kts | 61° |
| 2026-05-04 19:29 | 27.73897 | -40.68960 | 35130 ft | 490 kts | 61° |
| 2026-05-04 19:29 | 27.76612 | -40.61847 | 35118 ft | 491 kts | 61° |
| 2026-05-04 19:30 | 27.79317 | -40.54748 | 35118 ft | 491 kts | 61° |
| 2026-05-04 19:30 | 27.82002 | -40.47688 | 35118 ft | 491 kts | 61° |
| 2026-05-04 19:31 | 27.84691 | -40.40603 | 35115 ft | 491 kts | 61° |
| 2026-05-04 19:31 | 27.87381 | -40.33505 | 35111 ft | 491 kts | 61° |
| 2026-05-04 19:32 | 27.90069 | -40.26399 | 35114 ft | 491 kts | 61° |
| 2026-05-04 19:32 | 27.92742 | -40.19317 | 35110 ft | 491 kts | 61° |
| 2026-05-04 19:33 | 27.95428 | -40.12187 | 35107 ft | 491 kts | 61° |
| 2026-05-04 19:33 | 27.98100 | -40.05083 | 35107 ft | 491 kts | 61° |
| 2026-05-04 19:34 | 28.01372 | -39.98523 | 35109 ft | 478 kts | 46° |
| 2026-05-04 19:34 | 28.05664 | -39.92764 | 35107 ft | 475 kts | 43° |
| 2026-05-04 19:35 | 28.10087 | -39.87192 | 35108 ft | 475 kts | 42° |
| 2026-05-04 19:35 | 28.14519 | -39.81638 | 35105 ft | 475 kts | 43° |
| 2026-05-04 19:36 | 28.18930 | -39.76070 | 35104 ft | 475 kts | 43° |
| 2026-05-04 19:36 | 28.23329 | -39.70487 | 35103 ft | 474 kts | 43° |
| 2026-05-04 19:37 | 28.27726 | -39.64897 | 35101 ft | 474 kts | 43° |
| 2026-05-04 19:37 | 28.32114 | -39.59309 | 35103 ft | 474 kts | 43° |
| 2026-05-04 19:38 | 28.36477 | -39.53747 | 35110 ft | 474 kts | 42° |
| 2026-05-04 19:38 | 28.40866 | -39.48145 | 35107 ft | 474 kts | 42° |
| 2026-05-04 19:39 | 28.45252 | -39.42540 | 35107 ft | 475 kts | 42° |
| 2026-05-04 19:39 | 28.49635 | -39.36931 | 35093 ft | 475 kts | 42° |
| 2026-05-04 19:40 | 28.54017 | -39.31315 | 35093 ft | 474 kts | 42° |
| 2026-05-04 19:40 | 28.58397 | -39.25694 | 35094 ft | 474 kts | 42° |
| 2026-05-04 19:41 | 28.62769 | -39.20076 | 35095 ft | 474 kts | 42° |
| 2026-05-04 19:41 | 28.67142 | -39.14449 | 35098 ft | 474 kts | 43° |
| 2026-05-04 19:42 | 28.71487 | -39.08851 | 35097 ft | 475 kts | 42° |
| 2026-05-04 19:42 | 28.75894 | -39.03165 | 35096 ft | 475 kts | 42° |
| 2026-05-04 19:43 | 28.80240 | -38.97548 | 35098 ft | 475 kts | 42° |
| 2026-05-04 19:43 | 28.84633 | -38.91863 | 35089 ft | 475 kts | 42° |
| 2026-05-04 19:44 | 28.88954 | -38.86266 | 35091 ft | 475 kts | 42° |
| 2026-05-04 19:44 | 28.93337 | -38.80580 | 35093 ft | 474 kts | 42° |
| 2026-05-04 19:45 | 28.97695 | -38.74918 | 35093 ft | 474 kts | 43° |
| 2026-05-04 19:45 | 29.02047 | -38.69256 | 35094 ft | 474 kts | 43° |
| 2026-05-04 19:46 | 29.06376 | -38.63615 | 35099 ft | 475 kts | 42° |
| 2026-05-04 19:46 | 29.10742 | -38.57919 | 35093 ft | 476 kts | 42° |
| 2026-05-04 19:47 | 29.15100 | -38.52225 | 35091 ft | 476 kts | 43° |
| 2026-05-04 19:47 | 29.19457 | -38.46525 | 35091 ft | 476 kts | 42° |
| 2026-05-04 19:48 | 29.23813 | -38.40816 | 35091 ft | 476 kts | 42° |
| 2026-05-04 19:48 | 29.28140 | -38.35141 | 35089 ft | 477 kts | 42° |
| 2026-05-04 19:49 | 29.32524 | -38.29381 | 35082 ft | 477 kts | 42° |
| 2026-05-04 19:49 | 29.36871 | -38.23662 | 35083 ft | 477 kts | 42° |
| 2026-05-04 19:50 | 29.41225 | -38.17925 | 35095 ft | 477 kts | 42° |
| 2026-05-04 19:50 | 29.45564 | -38.12198 | 35083 ft | 477 kts | 42° |
| 2026-05-04 19:51 | 29.49934 | -38.06425 | 35080 ft | 477 kts | 42° |
| 2026-05-04 19:51 | 29.54243 | -38.00723 | 35079 ft | 477 kts | 42° |
| 2026-05-04 19:52 | 29.58624 | -37.94918 | 35103 ft | 477 kts | 42° |
| 2026-05-04 19:52 | 29.62931 | -37.89200 | 35081 ft | 475 kts | 42° |
| 2026-05-04 19:53 | 29.67265 | -37.83440 | 35081 ft | 475 kts | 42° |
| 2026-05-04 19:53 | 29.71590 | -37.77686 | 35081 ft | 475 kts | 42° |
| 2026-05-04 19:54 | 29.75919 | -37.71917 | 35080 ft | 475 kts | 42° |
| 2026-05-04 19:54 | 29.80229 | -37.66163 | 35078 ft | 474 kts | 42° |
| 2026-05-04 19:55 | 29.84537 | -37.60404 | 35079 ft | 474 kts | 42° |
| 2026-05-04 19:55 | 29.88839 | -37.54647 | 35078 ft | 474 kts | 42° |
| 2026-05-04 19:56 | 29.93138 | -37.48885 | 35079 ft | 474 kts | 42° |
| 2026-05-04 19:56 | 29.97402 | -37.43159 | 35082 ft | 473 kts | 42° |
| 2026-05-04 19:57 | 30.01691 | -37.37393 | 35077 ft | 472 kts | 42° |
| 2026-05-04 19:57 | 30.05972 | -37.31631 | 35077 ft | 472 kts | 42° |
| 2026-05-04 19:58 | 30.10247 | -37.25867 | 35082 ft | 472 kts | 42° |
| 2026-05-04 19:58 | 30.14518 | -37.20100 | 35080 ft | 472 kts | 42° |
| 2026-05-04 19:59 | 30.18774 | -37.14344 | 35077 ft | 471 kts | 42° |
| 2026-05-04 19:59 | 30.23026 | -37.08587 | 35077 ft | 471 kts | 42° |
| 2026-05-04 20:00 | 30.27284 | -37.02813 | 35076 ft | 471 kts | 42° |
| 2026-05-04 20:00 | 30.31530 | -36.97046 | 35083 ft | 471 kts | 42° |
| 2026-05-04 20:01 | 30.35769 | -36.91280 | 35075 ft | 470 kts | 42° |
| 2026-05-04 20:01 | 30.40010 | -36.85504 | 35081 ft | 470 kts | 42° |
| 2026-05-04 20:02 | 30.44243 | -36.79730 | 35077 ft | 469 kts | 42° |
| 2026-05-04 20:02 | 30.48466 | -36.73961 | 35103 ft | 469 kts | 42° |
| 2026-05-04 20:03 | 30.52652 | -36.68232 | 35076 ft | 467 kts | 42° |
| 2026-05-04 20:03 | 30.56852 | -36.62477 | 35077 ft | 467 kts | 42° |
| 2026-05-04 20:04 | 30.61051 | -36.56718 | 35077 ft | 467 kts | 42° |
| 2026-05-04 20:04 | 30.65241 | -36.50962 | 35074 ft | 467 kts | 42° |
| 2026-05-04 20:05 | 30.69402 | -36.45236 | 35078 ft | 467 kts | 42° |
| 2026-05-04 20:05 | 30.73599 | -36.39452 | 35078 ft | 467 kts | 42° |
| 2026-05-04 20:06 | 30.77771 | -36.33693 | 35078 ft | 467 kts | 42° |
| 2026-05-04 20:06 | 30.81969 | -36.27891 | 35083 ft | 467 kts | 43° |
| 2026-05-04 20:07 | 30.85468 | -36.23046 | 35069 ft | 465 kts | 42° |
| 2026-05-04 20:07 | 30.89593 | -36.17326 | 35070 ft | 464 kts | 42° |
| 2026-05-04 20:08 | 30.93714 | -36.11607 | 35073 ft | 464 kts | 42° |
| 2026-05-04 20:08 | 30.97890 | -36.05803 | 35073 ft | 464 kts | 43° |
| 2026-05-04 20:09 | 31.02043 | -36.00023 | 35098 ft | 464 kts | 42° |
| 2026-05-04 20:09 | 31.06149 | -35.94295 | 35078 ft | 462 kts | 42° |
| 2026-05-04 20:10 | 31.10274 | -35.88535 | 35083 ft | 462 kts | 42° |
| 2026-05-04 20:10 | 31.14394 | -35.82775 | 35082 ft | 462 kts | 43° |
| 2026-05-04 20:11 | 31.18511 | -35.77009 | 35080 ft | 462 kts | 43° |
| 2026-05-04 20:11 | 31.22616 | -35.71250 | 35083 ft | 460 kts | 43° |
| 2026-05-04 20:12 | 31.26694 | -35.65520 | 35084 ft | 459 kts | 43° |
| 2026-05-04 20:12 | 31.30795 | -35.59753 | 35091 ft | 459 kts | 43° |
| 2026-05-04 20:13 | 31.34879 | -35.54000 | 35086 ft | 459 kts | 43° |
| 2026-05-04 20:13 | 31.38961 | -35.48240 | 35093 ft | 459 kts | 43° |
| 2026-05-04 20:14 | 31.42989 | -35.42543 | 35091 ft | 456 kts | 43° |
| 2026-05-04 20:14 | 31.47018 | -35.36842 | 35091 ft | 456 kts | 43° |
| 2026-05-04 20:15 | 31.51083 | -35.31083 | 35091 ft | 456 kts | 43° |
| 2026-05-04 20:15 | 31.55124 | -35.25348 | 35091 ft | 456 kts | 43° |
| 2026-05-04 20:16 | 31.59151 | -35.19621 | 35084 ft | 453 kts | 42° |
| 2026-05-04 20:16 | 31.63156 | -35.13917 | 35090 ft | 452 kts | 42° |
| 2026-05-04 20:17 | 31.67137 | -35.08243 | 35093 ft | 452 kts | 42° |
| 2026-05-04 20:17 | 31.71149 | -35.02515 | 35093 ft | 452 kts | 42° |
| 2026-05-04 20:18 | 31.75137 | -34.96812 | 35109 ft | 451 kts | 42° |
| 2026-05-04 20:18 | 31.79109 | -34.91119 | 35103 ft | 449 kts | 42° |
| 2026-05-04 20:19 | 31.83016 | -34.85515 | 35108 ft | 449 kts | 42° |
| 2026-05-04 20:19 | 31.87002 | -34.79793 | 35105 ft | 449 kts | 42° |
| 2026-05-04 20:20 | 31.90961 | -34.74097 | 35109 ft | 449 kts | 42° |
| 2026-05-04 20:20 | 31.94914 | -34.68399 | 35110 ft | 448 kts | 42° |
| 2026-05-04 20:21 | 31.98846 | -34.62724 | 35109 ft | 447 kts | 42° |
| 2026-05-04 20:21 | 32.04744 | -34.54200 | 35114 ft | 447 kts | 42° |
| 2026-05-04 20:22 | 32.08636 | -34.48563 | 35115 ft | 447 kts | 42° |
| 2026-05-04 20:22 | 32.12563 | -34.42865 | 35113 ft | 446 kts | 43° |
| 2026-05-04 20:23 | 32.16447 | -34.37221 | 35119 ft | 445 kts | 43° |
| 2026-05-04 20:23 | 32.20372 | -34.31512 | 35121 ft | 445 kts | 43° |
| 2026-05-04 20:24 | 32.24279 | -34.25818 | 35125 ft | 445 kts | 43° |
| 2026-05-04 20:24 | 32.28179 | -34.20128 | 35143 ft | 445 kts | 43° |
| 2026-05-04 20:25 | 32.32068 | -34.14443 | 35128 ft | 445 kts | 43° |
| 2026-05-04 20:25 | 32.35931 | -34.08788 | 35130 ft | 444 kts | 43° |
| 2026-05-04 20:26 | 32.39806 | -34.03106 | 35131 ft | 445 kts | 43° |
| 2026-05-04 20:26 | 32.43702 | -33.97387 | 35132 ft | 445 kts | 43° |
| 2026-05-04 20:27 | 32.47582 | -33.91682 | 35129 ft | 445 kts | 43° |
| 2026-05-04 20:27 | 32.51461 | -33.85968 | 35136 ft | 445 kts | 43° |
| 2026-05-04 20:28 | 32.55340 | -33.80247 | 35138 ft | 445 kts | 43° |
| 2026-05-04 20:28 | 32.59214 | -33.74523 | 35138 ft | 445 kts | 43° |
| 2026-05-04 20:29 | 32.63060 | -33.68834 | 35169 ft | 445 kts | 43° |
| 2026-05-04 20:29 | 32.66926 | -33.63104 | 35138 ft | 444 kts | 43° |
| 2026-05-04 20:30 | 32.70784 | -33.57378 | 35141 ft | 444 kts | 43° |
| 2026-05-04 20:30 | 32.74644 | -33.51642 | 35141 ft | 444 kts | 43° |
| 2026-05-04 20:31 | 32.78491 | -33.45916 | 35143 ft | 444 kts | 43° |
| 2026-05-04 20:31 | 32.82324 | -33.40200 | 35156 ft | 444 kts | 43° |
| 2026-05-04 20:32 | 32.86159 | -33.34473 | 35149 ft | 443 kts | 43° |
| 2026-05-04 20:32 | 32.89992 | -33.28740 | 35153 ft | 443 kts | 43° |
| 2026-05-04 20:33 | 32.93821 | -33.23005 | 35156 ft | 443 kts | 43° |
| 2026-05-04 20:33 | 32.97659 | -33.17248 | 35156 ft | 443 kts | 43° |
| 2026-05-04 20:34 | 33.01491 | -33.11492 | 35163 ft | 443 kts | 44° |
| 2026-05-04 20:34 | 33.05317 | -33.05732 | 35163 ft | 442 kts | 44° |
| 2026-05-04 20:35 | 33.09085 | -33.00053 | 35161 ft | 442 kts | 44° |
| 2026-05-04 20:35 | 33.12926 | -32.94254 | 35163 ft | 442 kts | 44° |
| 2026-05-04 20:36 | 33.16739 | -32.88490 | 35186 ft | 442 kts | 44° |
| 2026-05-04 20:36 | 33.20555 | -32.82715 | 35173 ft | 444 kts | 44° |
| 2026-05-04 20:37 | 33.24385 | -32.76907 | 35180 ft | 444 kts | 44° |
| 2026-05-04 20:37 | 33.28213 | -32.71088 | 35180 ft | 444 kts | 44° |
| 2026-05-04 20:38 | 33.32001 | -32.65323 | 35167 ft | 444 kts | 44° |
| 2026-05-04 20:38 | 33.35834 | -32.59483 | 35180 ft | 444 kts | 44° |
| 2026-05-04 20:39 | 33.39664 | -32.53642 | 35175 ft | 447 kts | 45° |
| 2026-05-04 20:39 | 33.43500 | -32.47775 | 35178 ft | 447 kts | 45° |
| 2026-05-04 20:40 | 33.47312 | -32.41936 | 35178 ft | 447 kts | 45° |
| 2026-05-04 20:40 | 33.51140 | -32.36063 | 35178 ft | 447 kts | 45° |
| 2026-05-04 20:41 | 33.54948 | -32.30217 | 35189 ft | 451 kts | 45° |
| 2026-05-04 20:41 | 33.58839 | -32.24236 | 35187 ft | 454 kts | 45° |
| 2026-05-04 20:42 | 33.62735 | -32.18228 | 35187 ft | 454 kts | 45° |
| 2026-05-04 20:42 | 33.66611 | -32.12240 | 35183 ft | 454 kts | 45° |
| 2026-05-04 20:43 | 33.70478 | -32.06260 | 35205 ft | 454 kts | 46° |
| 2026-05-04 20:43 | 33.74349 | -32.00270 | 35191 ft | 459 kts | 46° |
| 2026-05-04 20:44 | 33.78268 | -31.94191 | 35193 ft | 460 kts | 46° |
| 2026-05-04 20:44 | 33.82185 | -31.88100 | 35194 ft | 460 kts | 46° |
| 2026-05-04 20:45 | 33.86094 | -31.82013 | 35200 ft | 460 kts | 46° |
| 2026-05-04 20:45 | 33.90010 | -31.75911 | 35204 ft | 463 kts | 47° |
| 2026-05-04 20:46 | 33.93974 | -31.69724 | 35198 ft | 468 kts | 47° |
| 2026-05-04 20:46 | 33.97906 | -31.63570 | 35200 ft | 468 kts | 47° |
| 2026-05-04 20:47 | 34.01892 | -31.57320 | 35205 ft | 468 kts | 47° |
| 2026-05-04 20:47 | 34.05860 | -31.51089 | 35216 ft | 468 kts | 48° |
| 2026-05-04 20:48 | 34.09859 | -31.44806 | 35208 ft | 476 kts | 49° |
| 2026-05-04 20:48 | 34.13858 | -31.38506 | 35208 ft | 477 kts | 49° |
| 2026-05-04 20:49 | 34.17929 | -31.32077 | 35211 ft | 477 kts | 49° |
| 2026-05-04 20:49 | 34.21960 | -31.25701 | 35213 ft | 477 kts | 49° |
| 2026-05-04 20:50 | 34.25960 | -31.19366 | 35210 ft | 477 kts | 49° |
| 2026-05-04 20:50 | 34.29978 | -31.12992 | 35213 ft | 477 kts | 49° |
| 2026-05-04 20:51 | 34.33998 | -31.06602 | 35213 ft | 477 kts | 49° |
| 2026-05-04 20:51 | 34.37988 | -31.00250 | 35214 ft | 477 kts | 49° |
| 2026-05-04 20:52 | 34.42013 | -30.93831 | 35224 ft | 479 kts | 50° |
| 2026-05-04 20:52 | 34.46069 | -30.87352 | 35218 ft | 484 kts | 50° |
| 2026-05-04 20:53 | 34.50137 | -30.80836 | 35220 ft | 484 kts | 50° |
| 2026-05-04 20:53 | 34.53479 | -30.75476 | 35220 ft | 484 kts | 50° |
| 2026-05-04 20:54 | 34.57573 | -30.68898 | 35225 ft | 484 kts | 50° |
| 2026-05-04 20:54 | 34.61639 | -30.62357 | 35229 ft | 487 kts | 50° |
| 2026-05-04 20:55 | 34.65728 | -30.55767 | 35232 ft | 489 kts | 50° |
| 2026-05-04 20:55 | 34.69817 | -30.49159 | 35229 ft | 489 kts | 50° |
| 2026-05-04 20:56 | 34.73905 | -30.42543 | 35226 ft | 489 kts | 50° |
| 2026-05-04 20:56 | 34.77939 | -30.36003 | 35232 ft | 491 kts | 50° |
| 2026-05-04 20:57 | 34.82081 | -30.29275 | 35234 ft | 493 kts | 50° |
| 2026-05-04 20:57 | 34.86202 | -30.22569 | 35235 ft | 494 kts | 51° |
| 2026-05-04 20:58 | 34.90315 | -30.15867 | 35236 ft | 494 kts | 51° |
| 2026-05-04 20:58 | 34.94424 | -30.09158 | 35242 ft | 494 kts | 51° |
| 2026-05-04 20:59 | 34.98539 | -30.02426 | 35247 ft | 496 kts | 51° |
| 2026-05-04 20:59 | 35.02697 | -29.95808 | 35248 ft | 495 kts | 48° |
| 2026-05-04 21:00 | 35.07197 | -29.89410 | 35249 ft | 495 kts | 47° |
| 2026-05-04 21:00 | 35.11714 | -29.83055 | 35237 ft | 495 kts | 47° |
| 2026-05-04 21:01 | 35.16186 | -29.76644 | 35245 ft | 496 kts | 47° |
| 2026-05-04 21:01 | 35.20588 | -29.70264 | 35244 ft | 497 kts | 48° |
| 2026-05-04 21:02 | 35.25053 | -29.63764 | 35247 ft | 497 kts | 47° |
| 2026-05-04 21:02 | 35.29505 | -29.57278 | 35257 ft | 497 kts | 47° |
| 2026-05-04 21:03 | 35.33955 | -29.50781 | 35256 ft | 498 kts | 47° |
| 2026-05-04 21:03 | 35.38418 | -29.44254 | 35255 ft | 500 kts | 48° |
| 2026-05-04 21:04 | 35.42887 | -29.37707 | 35262 ft | 500 kts | 48° |
| 2026-05-04 21:04 | 35.47309 | -29.31215 | 35271 ft | 500 kts | 48° |
| 2026-05-04 21:05 | 35.51783 | -29.24640 | 35270 ft | 500 kts | 48° |
| 2026-05-04 21:05 | 35.56238 | -29.18077 | 35269 ft | 501 kts | 48° |
| 2026-05-04 21:06 | 35.60697 | -29.11497 | 35268 ft | 501 kts | 48° |
| 2026-05-04 21:06 | 35.65150 | -29.04913 | 35273 ft | 501 kts | 48° |
| 2026-05-04 21:07 | 35.69608 | -28.98309 | 35274 ft | 501 kts | 48° |
| 2026-05-04 21:07 | 35.74003 | -28.91786 | 35273 ft | 501 kts | 48° |
| 2026-05-04 21:08 | 35.78468 | -28.85144 | 35276 ft | 502 kts | 49° |
| 2026-05-04 21:08 | 35.82915 | -28.78517 | 35276 ft | 501 kts | 49° |
| 2026-05-04 21:09 | 35.87377 | -28.71854 | 35283 ft | 502 kts | 49° |
| 2026-05-04 21:09 | 35.91811 | -28.65220 | 35284 ft | 502 kts | 48° |
| 2026-05-04 21:10 | 35.96254 | -28.58562 | 35284 ft | 502 kts | 49° |
| 2026-05-04 21:10 | 36.00691 | -28.51898 | 35284 ft | 502 kts | 49° |
| 2026-05-04 21:11 | 36.05103 | -28.45258 | 35286 ft | 502 kts | 49° |
| 2026-05-04 21:11 | 36.09513 | -28.38609 | 35286 ft | 502 kts | 49° |
| 2026-05-04 21:12 | 36.13970 | -28.31877 | 35292 ft | 502 kts | 49° |
| 2026-05-04 21:12 | 36.18396 | -28.25177 | 35291 ft | 502 kts | 49° |
| 2026-05-04 21:13 | 36.22785 | -28.18520 | 35292 ft | 502 kts | 49° |
| 2026-05-04 21:13 | 36.27202 | -28.11808 | 35294 ft | 502 kts | 49° |
| 2026-05-04 21:14 | 36.31619 | -28.05082 | 35297 ft | 502 kts | 49° |
| 2026-05-04 21:14 | 36.36023 | -27.98362 | 35296 ft | 502 kts | 49° |
| 2026-05-04 21:15 | 36.40412 | -27.91653 | 35297 ft | 503 kts | 49° |
| 2026-05-04 21:15 | 36.44832 | -27.84882 | 35296 ft | 503 kts | 49° |
| 2026-05-04 21:16 | 36.49233 | -27.78127 | 35300 ft | 503 kts | 49° |
| 2026-05-04 21:16 | 36.53629 | -27.71365 | 35301 ft | 503 kts | 49° |
| 2026-05-04 21:17 | 36.57984 | -27.64656 | 35304 ft | 503 kts | 49° |
| 2026-05-04 21:17 | 36.62394 | -27.57845 | 35304 ft | 503 kts | 49° |
| 2026-05-04 21:18 | 36.66775 | -27.51068 | 35302 ft | 503 kts | 49° |
| 2026-05-04 21:18 | 36.71156 | -27.44275 | 35314 ft | 503 kts | 49° |
| 2026-05-04 21:19 | 36.75552 | -27.37446 | 35309 ft | 503 kts | 49° |
| 2026-05-04 21:19 | 36.79928 | -27.30635 | 35309 ft | 503 kts | 49° |
| 2026-05-04 21:20 | 36.84293 | -27.23827 | 35307 ft | 503 kts | 49° |
| 2026-05-04 21:20 | 36.88606 | -27.17085 | 35314 ft | 503 kts | 49° |
| 2026-05-04 21:21 | 36.92992 | -27.10216 | 35298 ft | 503 kts | 49° |
| 2026-05-04 21:21 | 36.97351 | -27.03374 | 35313 ft | 503 kts | 49° |
| 2026-05-04 21:22 | 37.01713 | -26.96516 | 35318 ft | 503 kts | 49° |
| 2026-05-04 21:22 | 37.06065 | -26.89658 | 35310 ft | 503 kts | 49° |
| 2026-05-04 21:23 | 37.10410 | -26.82795 | 35310 ft | 503 kts | 49° |
| 2026-05-04 21:23 | 37.14757 | -26.75918 | 35314 ft | 503 kts | 49° |
| 2026-05-04 21:24 | 37.19100 | -26.69033 | 35313 ft | 503 kts | 49° |
| 2026-05-04 21:24 | 37.23411 | -26.62184 | 35313 ft | 503 kts | 49° |
| 2026-05-04 21:25 | 37.27743 | -26.55286 | 35325 ft | 503 kts | 49° |
| 2026-05-04 21:25 | 37.32067 | -26.48386 | 35313 ft | 502 kts | 49° |
| 2026-05-04 21:26 | 37.36380 | -26.41491 | 35316 ft | 501 kts | 49° |
| 2026-05-04 21:26 | 37.40684 | -26.34596 | 35329 ft | 501 kts | 49° |
| 2026-05-04 21:27 | 37.44959 | -26.27733 | 35322 ft | 499 kts | 49° |
| 2026-05-04 21:27 | 37.49264 | -26.20806 | 35323 ft | 499 kts | 49° |
| 2026-05-04 21:28 | 37.53516 | -26.13954 | 35324 ft | 500 kts | 49° |
| 2026-05-04 21:28 | 37.57791 | -26.07048 | 35320 ft | 500 kts | 49° |
| 2026-05-04 21:29 | 37.62068 | -26.00123 | 35312 ft | 500 kts | 49° |
| 2026-05-04 21:29 | 37.66332 | -25.93206 | 35312 ft | 500 kts | 49° |
| 2026-05-04 21:30 | 37.70576 | -25.86308 | 35304 ft | 502 kts | 49° |
| 2026-05-04 21:30 | 37.74886 | -25.79287 | 35298 ft | 502 kts | 49° |
| 2026-05-04 21:31 | 37.81275 | -25.68850 | 35289 ft | 502 kts | 49° |
| 2026-05-04 21:32 | 37.85559 | -25.61834 | 35304 ft | 502 kts | 49° |
| 2026-05-04 21:32 | 37.89816 | -25.54849 | 35306 ft | 504 kts | 49° |
| 2026-05-04 21:33 | 37.94094 | -25.47813 | 35315 ft | 504 kts | 50° |
| 2026-05-04 21:33 | 37.98370 | -25.40764 | 35329 ft | 504 kts | 50° |
| 2026-05-04 21:34 | 38.02641 | -25.33708 | 35334 ft | 504 kts | 50° |
| 2026-05-04 21:34 | 38.06876 | -25.26699 | 35332 ft | 504 kts | 50° |
| 2026-05-04 21:35 | 38.11177 | -25.19563 | 35334 ft | 504 kts | 50° |
| 2026-05-04 21:35 | 38.15422 | -25.12505 | 35332 ft | 502 kts | 50° |
| 2026-05-04 21:36 | 38.19655 | -25.05453 | 35331 ft | 502 kts | 50° |
| 2026-05-04 21:36 | 38.23884 | -24.98392 | 35336 ft | 502 kts | 50° |
| 2026-05-04 21:37 | 38.28085 | -24.91363 | 35334 ft | 503 kts | 50° |
| 2026-05-04 21:37 | 38.32343 | -24.84223 | 35334 ft | 504 kts | 50° |
| 2026-05-04 21:38 | 38.36591 | -24.77083 | 35337 ft | 504 kts | 50° |
| 2026-05-04 21:38 | 38.40827 | -24.69947 | 35349 ft | 504 kts | 50° |
| 2026-05-04 21:39 | 38.45020 | -24.62871 | 35346 ft | 503 kts | 51° |
| 2026-05-04 21:39 | 38.49222 | -24.55762 | 35338 ft | 500 kts | 51° |
| 2026-05-04 21:40 | 38.53364 | -24.48739 | 35336 ft | 500 kts | 51° |
| 2026-05-04 21:40 | 38.57569 | -24.41593 | 35339 ft | 500 kts | 51° |
| 2026-05-04 21:41 | 38.61756 | -24.34466 | 35339 ft | 499 kts | 51° |
| 2026-05-04 21:41 | 38.65884 | -24.27421 | 35339 ft | 498 kts | 51° |
| 2026-05-04 21:42 | 38.70020 | -24.20347 | 35339 ft | 498 kts | 51° |
| 2026-05-04 21:42 | 38.74171 | -24.13231 | 35339 ft | 498 kts | 51° |
| 2026-05-04 21:43 | 38.77579 | -24.07378 | 35345 ft | 498 kts | 51° |
| 2026-05-04 21:43 | 38.81752 | -24.00198 | 35340 ft | 497 kts | 51° |
| 2026-05-04 21:44 | 38.85883 | -23.93071 | 35340 ft | 496 kts | 51° |
| 2026-05-04 21:44 | 38.89997 | -23.85959 | 35340 ft | 496 kts | 51° |
| 2026-05-04 21:45 | 38.94061 | -23.78920 | 35340 ft | 496 kts | 51° |
| 2026-05-04 21:45 | 38.98188 | -23.71755 | 35342 ft | 496 kts | 51° |
| 2026-05-04 21:46 | 39.02291 | -23.64616 | 35339 ft | 496 kts | 52° |
| 2026-05-04 21:46 | 39.06387 | -23.57472 | 35340 ft | 496 kts | 52° |
| 2026-05-04 21:47 | 39.10446 | -23.50379 | 35339 ft | 496 kts | 52° |
| 2026-05-04 21:47 | 39.14544 | -23.43199 | 35341 ft | 496 kts | 52° |
| 2026-05-04 21:48 | 39.18660 | -23.35973 | 35340 ft | 496 kts | 52° |
| 2026-05-04 21:48 | 39.22742 | -23.28790 | 35340 ft | 497 kts | 52° |
| 2026-05-04 21:49 | 39.26827 | -23.21586 | 35344 ft | 497 kts | 52° |
| 2026-05-04 21:49 | 39.30881 | -23.14420 | 35343 ft | 497 kts | 52° |
| 2026-05-04 21:50 | 39.34913 | -23.07279 | 35344 ft | 497 kts | 52° |
| 2026-05-04 21:50 | 39.39023 | -22.99980 | 35343 ft | 497 kts | 52° |
| 2026-05-04 21:51 | 39.43090 | -22.92742 | 35341 ft | 497 kts | 52° |
| 2026-05-04 21:51 | 39.47156 | -22.85492 | 35327 ft | 497 kts | 52° |
| 2026-05-04 21:52 | 39.51182 | -22.78293 | 35345 ft | 497 kts | 52° |
| 2026-05-04 21:52 | 39.55189 | -22.71115 | 35333 ft | 497 kts | 52° |
| 2026-05-04 21:53 | 39.59258 | -22.63809 | 35339 ft | 496 kts | 52° |
| 2026-05-04 21:53 | 39.63313 | -22.56509 | 35340 ft | 496 kts | 52° |
| 2026-05-04 21:54 | 39.67343 | -22.49239 | 35339 ft | 496 kts | 52° |
| 2026-05-04 21:54 | 39.71378 | -22.41943 | 35344 ft | 497 kts | 53° |
| 2026-05-04 21:55 | 39.75382 | -22.34687 | 35343 ft | 497 kts | 53° |
| 2026-05-04 21:55 | 39.79379 | -22.27426 | 35349 ft | 497 kts | 53° |
| 2026-05-04 21:56 | 39.83423 | -22.20063 | 35345 ft | 496 kts | 53° |
| 2026-05-04 21:56 | 39.87401 | -22.12805 | 35341 ft | 496 kts | 53° |
| 2026-05-04 21:57 | 39.91371 | -22.05543 | 35345 ft | 496 kts | 53° |
| 2026-05-04 21:57 | 39.95382 | -21.98189 | 35341 ft | 496 kts | 53° |
| 2026-05-04 21:58 | 39.99389 | -21.90825 | 35341 ft | 496 kts | 53° |
| 2026-05-04 21:58 | 40.03373 | -21.83487 | 35341 ft | 496 kts | 53° |
| 2026-05-04 21:59 | 40.07352 | -21.76141 | 35343 ft | 496 kts | 53° |
| 2026-05-04 21:59 | 40.11333 | -21.68775 | 35343 ft | 496 kts | 53° |
| 2026-05-04 22:00 | 40.15288 | -21.61438 | 35344 ft | 496 kts | 53° |
| 2026-05-04 22:00 | 40.19273 | -21.54030 | 35346 ft | 496 kts | 53° |
| 2026-05-04 22:01 | 40.23238 | -21.46640 | 35355 ft | 496 kts | 53° |
| 2026-05-04 22:01 | 40.27170 | -21.39295 | 35344 ft | 496 kts | 53° |
| 2026-05-04 22:02 | 40.31103 | -21.31932 | 35344 ft | 496 kts | 53° |
| 2026-05-04 22:02 | 40.35080 | -21.24467 | 35348 ft | 496 kts | 53° |
| 2026-05-04 22:03 | 40.39025 | -21.17046 | 35344 ft | 496 kts | 53° |
| 2026-05-04 22:03 | 40.42972 | -21.09603 | 35349 ft | 497 kts | 53° |
| 2026-05-04 22:04 | 40.46915 | -21.02149 | 35344 ft | 497 kts | 53° |
| 2026-05-04 22:04 | 40.50863 | -20.94669 | 35345 ft | 498 kts | 53° |
| 2026-05-04 22:05 | 40.54756 | -20.87274 | 35347 ft | 498 kts | 53° |
| 2026-05-04 22:05 | 40.58707 | -20.79753 | 35348 ft | 498 kts | 53° |
| 2026-05-04 22:06 | 40.62652 | -20.72224 | 35341 ft | 499 kts | 53° |
| 2026-05-04 22:06 | 40.66590 | -20.64689 | 35344 ft | 499 kts | 53° |
| 2026-05-04 22:07 | 40.70521 | -20.57152 | 35344 ft | 499 kts | 53° |
| 2026-05-04 22:07 | 40.74441 | -20.49615 | 35343 ft | 499 kts | 53° |
| 2026-05-04 22:08 | 40.78362 | -20.42058 | 35347 ft | 500 kts | 53° |
| 2026-05-04 22:08 | 40.82257 | -20.34534 | 35344 ft | 501 kts | 53° |
| 2026-05-04 22:09 | 40.86192 | -20.26914 | 35344 ft | 501 kts | 53° |
| 2026-05-04 22:09 | 40.90117 | -20.19295 | 35342 ft | 501 kts | 53° |
| 2026-05-04 22:10 | 40.94035 | -20.11670 | 35351 ft | 501 kts | 53° |
| 2026-05-04 22:10 | 40.97865 | -20.04199 | 35338 ft | 502 kts | 53° |
| 2026-05-04 22:11 | 41.02124 | -19.96744 | 35336 ft | 500 kts | 48° |
| 2026-05-04 22:11 | 41.06589 | -19.89687 | 35329 ft | 499 kts | 47° |
| 2026-05-04 22:12 | 41.11069 | -19.82685 | 35332 ft | 499 kts | 47° |
| 2026-05-04 22:12 | 41.15546 | -19.75675 | 35334 ft | 500 kts | 47° |
| 2026-05-04 22:13 | 41.20043 | -19.68604 | 35332 ft | 500 kts | 47° |
| 2026-05-04 22:13 | 41.24556 | -19.61483 | 35332 ft | 500 kts | 47° |
| 2026-05-04 22:14 | 41.29009 | -19.54441 | 35332 ft | 500 kts | 47° |
| 2026-05-04 22:14 | 41.33488 | -19.47341 | 35332 ft | 500 kts | 47° |
| 2026-05-04 22:15 | 41.37941 | -19.40266 | 35333 ft | 501 kts | 47° |
| 2026-05-04 22:15 | 41.42385 | -19.33189 | 35335 ft | 501 kts | 47° |
| 2026-05-04 22:16 | 41.46868 | -19.26033 | 35334 ft | 501 kts | 47° |
| 2026-05-04 22:16 | 41.51361 | -19.18845 | 35331 ft | 501 kts | 47° |
| 2026-05-04 22:17 | 41.55826 | -19.11683 | 35341 ft | 501 kts | 47° |
| 2026-05-04 22:17 | 41.60281 | -19.04520 | 35330 ft | 502 kts | 47° |
| 2026-05-04 22:18 | 41.64743 | -18.97331 | 35335 ft | 502 kts | 47° |
| 2026-05-04 22:18 | 41.69190 | -18.90147 | 35328 ft | 501 kts | 47° |
| 2026-05-04 22:19 | 41.73557 | -18.83075 | 35327 ft | 501 kts | 47° |
| 2026-05-04 22:19 | 41.78023 | -18.75826 | 35327 ft | 501 kts | 47° |
| 2026-05-04 22:20 | 41.82499 | -18.68545 | 35326 ft | 501 kts | 47° |
| 2026-05-04 22:20 | 41.86930 | -18.61319 | 35325 ft | 501 kts | 47° |
| 2026-05-04 22:21 | 41.91324 | -18.54135 | 35332 ft | 501 kts | 47° |
| 2026-05-04 22:21 | 41.95748 | -18.46885 | 35322 ft | 501 kts | 47° |
| 2026-05-04 22:22 | 42.00110 | -18.39718 | 35321 ft | 501 kts | 47° |
| 2026-05-04 22:22 | 42.04530 | -18.32440 | 35323 ft | 501 kts | 47° |
| 2026-05-04 22:23 | 42.08941 | -18.25159 | 35317 ft | 501 kts | 47° |
| 2026-05-04 22:23 | 42.13366 | -18.17837 | 35317 ft | 501 kts | 47° |
| 2026-05-04 22:24 | 42.17771 | -18.10530 | 35315 ft | 501 kts | 47° |
| 2026-05-04 22:24 | 42.22134 | -18.03276 | 35315 ft | 499 kts | 47° |
| 2026-05-04 22:25 | 42.26500 | -17.95996 | 35318 ft | 498 kts | 47° |
| 2026-05-04 22:25 | 42.30832 | -17.88759 | 35318 ft | 498 kts | 47° |
| 2026-05-04 22:26 | 42.35168 | -17.81497 | 35313 ft | 498 kts | 47° |
| 2026-05-04 22:26 | 42.39535 | -17.74163 | 35320 ft | 498 kts | 47° |
| 2026-05-04 22:27 | 42.43870 | -17.66865 | 35307 ft | 497 kts | 48° |
| 2026-05-04 22:27 | 42.48190 | -17.59575 | 35302 ft | 495 kts | 48° |
| 2026-05-04 22:28 | 42.52492 | -17.52299 | 35303 ft | 494 kts | 48° |
| 2026-05-04 22:28 | 42.56778 | -17.45031 | 35301 ft | 494 kts | 48° |
| 2026-05-04 22:29 | 42.61062 | -17.37750 | 35315 ft | 494 kts | 48° |
| 2026-05-04 22:29 | 42.65284 | -17.30556 | 35297 ft | 492 kts | 48° |
| 2026-05-04 22:30 | 42.69569 | -17.23236 | 35297 ft | 492 kts | 48° |
| 2026-05-04 22:30 | 42.73843 | -17.15919 | 35298 ft | 492 kts | 48° |
| 2026-05-04 22:31 | 42.78082 | -17.08641 | 35296 ft | 491 kts | 48° |
| 2026-05-04 22:31 | 42.82313 | -17.01360 | 35287 ft | 490 kts | 48° |
| 2026-05-04 22:32 | 42.86524 | -16.94095 | 35282 ft | 488 kts | 48° |
| 2026-05-04 22:32 | 42.90023 | -16.88047 | 35280 ft | 487 kts | 48° |
| 2026-05-04 22:33 | 42.94218 | -16.80779 | 35299 ft | 487 kts | 48° |
| 2026-05-04 22:33 | 42.98379 | -16.73550 | 35298 ft | 487 kts | 48° |
| 2026-05-04 22:34 | 43.02586 | -16.66223 | 35286 ft | 483 kts | 48° |
| 2026-05-04 22:34 | 43.06709 | -16.59021 | 35284 ft | 480 kts | 48° |
| 2026-05-04 22:35 | 43.10745 | -16.51962 | 35280 ft | 479 kts | 48° |
| 2026-05-04 22:35 | 43.14869 | -16.44730 | 35277 ft | 480 kts | 48° |
| 2026-05-04 22:36 | 43.19006 | -16.37457 | 35277 ft | 480 kts | 48° |
| 2026-05-04 22:36 | 43.23103 | -16.30235 | 35275 ft | 479 kts | 48° |
| 2026-05-04 22:37 | 43.27179 | -16.23030 | 35276 ft | 476 kts | 48° |
| 2026-05-04 22:37 | 43.31221 | -16.15867 | 35267 ft | 474 kts | 48° |
| 2026-05-04 22:38 | 43.35251 | -16.08712 | 35266 ft | 473 kts | 48° |
| 2026-05-04 22:38 | 43.39248 | -16.01600 | 35263 ft | 474 kts | 48° |
| 2026-05-04 22:39 | 43.43278 | -15.94408 | 35268 ft | 472 kts | 48° |
| 2026-05-04 22:39 | 43.47279 | -15.87249 | 35261 ft | 471 kts | 48° |
| 2026-05-04 22:40 | 43.51269 | -15.80096 | 35264 ft | 471 kts | 48° |
| 2026-05-04 22:40 | 43.55222 | -15.72991 | 35258 ft | 469 kts | 48° |
| 2026-05-04 22:41 | 43.59203 | -15.65817 | 35260 ft | 468 kts | 48° |
| 2026-05-04 22:41 | 43.63169 | -15.58652 | 35256 ft | 467 kts | 48° |
| 2026-05-04 22:42 | 43.67080 | -15.51569 | 35251 ft | 466 kts | 48° |
| 2026-05-04 22:42 | 43.71004 | -15.44450 | 35251 ft | 466 kts | 48° |
| 2026-05-04 22:43 | 43.74899 | -15.37365 | 35247 ft | 466 kts | 48° |
| 2026-05-04 22:43 | 43.78833 | -15.30190 | 35239 ft | 466 kts | 48° |
| 2026-05-04 22:44 | 43.82764 | -15.23002 | 35245 ft | 466 kts | 48° |
| 2026-05-04 22:44 | 43.86670 | -15.15842 | 35241 ft | 466 kts | 48° |
| 2026-05-04 22:45 | 43.90588 | -15.08643 | 35236 ft | 466 kts | 48° |
| 2026-05-04 22:45 | 43.96404 | -14.97923 | 35235 ft | 466 kts | 48° |
| 2026-05-04 22:46 | 44.00305 | -14.90711 | 35228 ft | 465 kts | 48° |
| 2026-05-04 22:46 | 44.04162 | -14.83558 | 35231 ft | 460 kts | 48° |
| 2026-05-04 22:47 | 44.07912 | -14.76589 | 35228 ft | 458 kts | 48° |
| 2026-05-04 22:47 | 44.11750 | -14.69445 | 35230 ft | 458 kts | 48° |
| 2026-05-04 22:48 | 44.15576 | -14.62304 | 35224 ft | 458 kts | 49° |
| 2026-05-04 22:48 | 44.19394 | -14.55159 | 35220 ft | 457 kts | 48° |
| 2026-05-04 22:49 | 44.23192 | -14.48033 | 35223 ft | 457 kts | 48° |
| 2026-05-04 22:49 | 44.26981 | -14.40907 | 35220 ft | 457 kts | 49° |
| 2026-05-04 22:50 | 44.30719 | -14.33858 | 35217 ft | 456 kts | 49° |
| 2026-05-04 22:50 | 44.34520 | -14.26674 | 35211 ft | 456 kts | 49° |
| 2026-05-04 22:51 | 44.38303 | -14.19507 | 35210 ft | 456 kts | 49° |
| 2026-05-04 22:51 | 44.42047 | -14.12397 | 35208 ft | 456 kts | 49° |
| 2026-05-04 22:52 | 44.45790 | -14.05269 | 35201 ft | 456 kts | 49° |
| 2026-05-04 22:52 | 44.49535 | -13.98122 | 35216 ft | 457 kts | 49° |
| 2026-05-04 22:53 | 44.53318 | -13.90886 | 35197 ft | 460 kts | 49° |
| 2026-05-04 22:53 | 44.57103 | -13.83621 | 35199 ft | 457 kts | 49° |
| 2026-05-04 22:54 | 44.60839 | -13.76433 | 35195 ft | 456 kts | 49° |
| 2026-05-04 22:54 | 44.64518 | -13.69343 | 35198 ft | 456 kts | 49° |
| 2026-05-04 22:55 | 44.68285 | -13.62069 | 35188 ft | 461 kts | 49° |
| 2026-05-04 22:55 | 44.72077 | -13.54722 | 35178 ft | 462 kts | 50° |
| 2026-05-04 22:56 | 44.75845 | -13.47398 | 35180 ft | 462 kts | 50° |
| 2026-05-04 22:56 | 44.79601 | -13.40080 | 35174 ft | 461 kts | 50° |
| 2026-05-04 22:57 | 44.83299 | -13.32858 | 35174 ft | 461 kts | 50° |
| 2026-05-04 22:57 | 44.87097 | -13.25429 | 35173 ft | 463 kts | 50° |
| 2026-05-04 22:58 | 44.90845 | -13.18072 | 35163 ft | 463 kts | 50° |
| 2026-05-04 22:58 | 44.94591 | -13.10702 | 35169 ft | 463 kts | 50° |
| 2026-05-04 22:59 | 44.98337 | -13.03277 | 35161 ft | 466 kts | 52° |
| 2026-05-04 22:59 | 45.01259 | -12.95086 | 35160 ft | 476 kts | 64° |
| 2026-05-04 23:00 | 45.03610 | -12.86237 | 35148 ft | 477 kts | 65° |
| 2026-05-04 23:00 | 45.05844 | -12.77407 | 35146 ft | 477 kts | 65° |
| 2026-05-04 23:01 | 45.08021 | -12.68785 | 35151 ft | 475 kts | 66° |
| 2026-05-04 23:01 | 45.10278 | -12.59888 | 35144 ft | 477 kts | 66° |
| 2026-05-04 23:02 | 45.12536 | -12.50980 | 35139 ft | 478 kts | 66° |
| 2026-05-04 23:02 | 45.14782 | -12.42082 | 35139 ft | 478 kts | 66° |
| 2026-05-04 23:03 | 45.17013 | -12.33213 | 35136 ft | 479 kts | 66° |
| 2026-05-04 23:03 | 45.19250 | -12.24288 | 35127 ft | 481 kts | 66° |
| 2026-05-04 23:04 | 45.21458 | -12.15437 | 35128 ft | 481 kts | 66° |
| 2026-05-04 23:04 | 45.23695 | -12.06431 | 35122 ft | 481 kts | 66° |
| 2026-05-04 23:05 | 45.25921 | -11.97437 | 35122 ft | 481 kts | 66° |
| 2026-05-04 23:05 | 45.28120 | -11.88519 | 35117 ft | 481 kts | 66° |
| 2026-05-04 23:06 | 45.30327 | -11.79531 | 35117 ft | 481 kts | 67° |
| 2026-05-04 23:06 | 45.32524 | -11.70547 | 35116 ft | 481 kts | 67° |
| 2026-05-04 23:07 | 45.34681 | -11.61697 | 35112 ft | 482 kts | 67° |
| 2026-05-04 23:07 | 45.36885 | -11.52617 | 35107 ft | 484 kts | 68° |
| 2026-05-04 23:08 | 45.39085 | -11.43512 | 35107 ft | 484 kts | 68° |
| 2026-05-04 23:08 | 45.41265 | -11.34449 | 35098 ft | 483 kts | 67° |
| 2026-05-04 23:09 | 45.43433 | -11.25403 | 35104 ft | 482 kts | 68° |
| 2026-05-04 23:09 | 45.45595 | -11.16350 | 35097 ft | 484 kts | 68° |
| 2026-05-04 23:10 | 45.47727 | -11.07386 | 35095 ft | 484 kts | 68° |
| 2026-05-04 23:10 | 45.49894 | -10.98234 | 35095 ft | 484 kts | 68° |
| 2026-05-04 23:11 | 45.52052 | -10.89086 | 35089 ft | 484 kts | 68° |
| 2026-05-04 23:11 | 45.54200 | -10.79937 | 35084 ft | 485 kts | 68° |
| 2026-05-04 23:12 | 45.56329 | -10.70835 | 35084 ft | 485 kts | 68° |
| 2026-05-04 23:12 | 45.58458 | -10.61691 | 35079 ft | 485 kts | 69° |
| 2026-05-04 23:13 | 45.60583 | -10.52532 | 35080 ft | 486 kts | 69° |
| 2026-05-04 23:13 | 45.62663 | -10.43526 | 35076 ft | 487 kts | 69° |
| 2026-05-04 23:14 | 45.64792 | -10.34269 | 35073 ft | 487 kts | 69° |
| 2026-05-04 23:14 | 45.66908 | -10.25029 | 35073 ft | 487 kts | 69° |
| 2026-05-04 23:15 | 45.69024 | -10.15751 | 35071 ft | 488 kts | 69° |
| 2026-05-04 23:15 | 45.71115 | -10.06540 | 35065 ft | 488 kts | 69° |
| 2026-05-04 23:16 | 45.73206 | -9.97290 | 35066 ft | 488 kts | 69° |
| 2026-05-04 23:16 | 45.75276 | -9.88091 | 35061 ft | 486 kts | 69° |
| 2026-05-04 23:17 | 45.77329 | -9.78934 | 35066 ft | 486 kts | 70° |
| 2026-05-04 23:17 | 45.79403 | -9.69643 | 35058 ft | 487 kts | 70° |
| 2026-05-04 23:18 | 45.81467 | -9.60353 | 35057 ft | 487 kts | 70° |
| 2026-05-04 23:18 | 45.83513 | -9.51104 | 35056 ft | 487 kts | 70° |
| 2026-05-04 23:19 | 45.85522 | -9.41983 | 35049 ft | 487 kts | 70° |
| 2026-05-04 23:19 | 45.87563 | -9.32674 | 35043 ft | 488 kts | 70° |
| 2026-05-04 23:20 | 45.89267 | -9.24873 | 35044 ft | 488 kts | 70° |
| 2026-05-04 23:20 | 45.91630 | -9.14003 | 35044 ft | 488 kts | 70° |
| 2026-05-04 23:21 | 45.93305 | -9.06268 | 35056 ft | 488 kts | 71° |
| 2026-05-04 23:21 | 45.95644 | -8.95413 | 35043 ft | 489 kts | 71° |
| 2026-05-04 23:22 | 45.97291 | -8.87737 | 35041 ft | 489 kts | 71° |
| 2026-05-04 23:22 | 45.99253 | -8.78343 | 35035 ft | 490 kts | 74° |
| 2026-05-04 23:23 | 46.00028 | -8.68524 | 35043 ft | 493 kts | 87° |
| 2026-05-04 23:23 | 46.00106 | -8.58650 | 35034 ft | 494 kts | 88° |
| 2026-05-04 23:24 | 46.00087 | -8.48771 | 35030 ft | 494 kts | 89° |
| 2026-05-04 23:24 | 46.00070 | -8.38884 | 35036 ft | 494 kts | 88° |
| 2026-05-04 23:25 | 46.00061 | -8.29141 | 35027 ft | 494 kts | 88° |
| 2026-05-04 23:25 | 46.00051 | -8.19154 | 35029 ft | 494 kts | 88° |
| 2026-05-04 23:26 | 46.00033 | -8.09515 | 35032 ft | 494 kts | 89° |
| 2026-05-04 23:26 | 46.00445 | -7.99627 | 35030 ft | 491 kts | 77° |
| 2026-05-04 23:27 | 46.02404 | -7.90208 | 35029 ft | 489 kts | 70° |
| 2026-05-04 23:27 | 46.04722 | -7.80887 | 35025 ft | 490 kts | 69° |
| 2026-05-04 23:28 | 46.07051 | -7.71647 | 35027 ft | 491 kts | 69° |
| 2026-05-04 23:28 | 46.09352 | -7.62397 | 35026 ft | 491 kts | 69° |
| 2026-05-04 23:29 | 46.11597 | -7.53277 | 35028 ft | 491 kts | 70° |
| 2026-05-04 23:29 | 46.13882 | -7.43937 | 35021 ft | 491 kts | 70° |
| 2026-05-04 23:30 | 46.16156 | -7.34604 | 35022 ft | 490 kts | 70° |
| 2026-05-04 23:30 | 46.18414 | -7.25301 | 35022 ft | 489 kts | 70° |
| 2026-05-04 23:31 | 46.20661 | -7.16012 | 35023 ft | 490 kts | 70° |
| 2026-05-04 23:31 | 46.22841 | -7.06955 | 35021 ft | 490 kts | 70° |
| 2026-05-04 23:32 | 46.25112 | -6.97485 | 35014 ft | 490 kts | 70° |
| 2026-05-04 23:32 | 46.27335 | -6.88179 | 35014 ft | 490 kts | 70° |
| 2026-05-04 23:33 | 46.29551 | -6.78860 | 35017 ft | 490 kts | 71° |
| 2026-05-04 23:33 | 46.31727 | -6.69667 | 35014 ft | 491 kts | 71° |
| 2026-05-04 23:34 | 46.33956 | -6.60213 | 35013 ft | 491 kts | 71° |
| 2026-05-04 23:34 | 46.36156 | -6.50842 | 35011 ft | 491 kts | 71° |
| 2026-05-04 23:35 | 46.38316 | -6.41602 | 35011 ft | 491 kts | 71° |
| 2026-05-04 23:35 | 46.40525 | -6.32113 | 35013 ft | 491 kts | 71° |
| 2026-05-04 23:36 | 46.42699 | -6.22732 | 35011 ft | 489 kts | 71° |
| 2026-05-04 23:36 | 46.44278 | -6.15892 | 35011 ft | 489 kts | 71° |
| 2026-05-04 23:37 | 46.46382 | -6.06749 | 35012 ft | 489 kts | 71° |
| 2026-05-04 23:37 | 46.48529 | -5.97378 | 35013 ft | 489 kts | 72° |
| 2026-05-04 23:38 | 46.50667 | -5.88000 | 35009 ft | 489 kts | 72° |
| 2026-05-04 23:38 | 46.52798 | -5.78615 | 35009 ft | 489 kts | 72° |
| 2026-05-04 23:39 | 46.54923 | -5.69213 | 35010 ft | 490 kts | 72° |
| 2026-05-04 23:39 | 46.57040 | -5.59808 | 35010 ft | 490 kts | 72° |
| 2026-05-04 23:40 | 46.59151 | -5.50387 | 35011 ft | 490 kts | 72° |
| 2026-05-04 23:40 | 46.61257 | -5.40949 | 35012 ft | 490 kts | 72° |
| 2026-05-04 23:41 | 46.63401 | -5.31512 | 35006 ft | 490 kts | 72° |
| 2026-05-04 23:41 | 46.65567 | -5.22161 | 35003 ft | 491 kts | 72° |
| 2026-05-04 23:42 | 46.67741 | -5.12718 | 35005 ft | 492 kts | 72° |
| 2026-05-04 23:42 | 46.69900 | -5.03256 | 35005 ft | 492 kts | 72° |
| 2026-05-04 23:43 | 46.72048 | -4.93783 | 34999 ft | 492 kts | 72° |
| 2026-05-04 23:43 | 46.74189 | -4.84298 | 34993 ft | 492 kts | 73° |
| 2026-05-04 23:44 | 46.76321 | -4.74814 | 34998 ft | 493 kts | 73° |
| 2026-05-04 23:44 | 46.78449 | -4.65304 | 34999 ft | 493 kts | 73° |
| 2026-05-04 23:45 | 46.80556 | -4.55849 | 34998 ft | 493 kts | 73° |
| 2026-05-04 23:45 | 46.82680 | -4.46272 | 34993 ft | 493 kts | 73° |
| 2026-05-04 23:46 | 46.84769 | -4.36808 | 34994 ft | 493 kts | 73° |
| 2026-05-04 23:46 | 46.86865 | -4.27272 | 34993 ft | 493 kts | 73° |
| 2026-05-04 23:47 | 46.88953 | -4.17729 | 34991 ft | 493 kts | 73° |
| 2026-05-04 23:47 | 46.91030 | -4.08191 | 34980 ft | 492 kts | 73° |
| 2026-05-04 23:48 | 46.93096 | -3.98664 | 34993 ft | 491 kts | 74° |
| 2026-05-04 23:48 | 46.95155 | -3.89119 | 34990 ft | 491 kts | 74° |
| 2026-05-04 23:49 | 46.97203 | -3.79584 | 34990 ft | 491 kts | 74° |
| 2026-05-04 23:49 | 46.99238 | -3.70063 | 34987 ft | 491 kts | 74° |
| 2026-05-04 23:50 | 47.01271 | -3.60510 | 34986 ft | 491 kts | 74° |
| 2026-05-04 23:50 | 47.03300 | -3.50934 | 34985 ft | 491 kts | 74° |
| 2026-05-04 23:51 | 47.05317 | -3.41365 | 34982 ft | 491 kts | 74° |
| 2026-05-04 23:51 | 47.07326 | -3.31791 | 34984 ft | 491 kts | 75° |
| 2026-05-04 23:52 | 47.09332 | -3.22186 | 34980 ft | 492 kts | 75° |
| 2026-05-04 23:52 | 47.11326 | -3.12588 | 34978 ft | 492 kts | 75° |
| 2026-05-04 23:53 | 47.13316 | -3.02972 | 34975 ft | 492 kts | 75° |
| 2026-05-04 23:53 | 47.15290 | -2.93340 | 34974 ft | 492 kts | 75° |
| 2026-05-04 23:54 | 47.17199 | -2.83768 | 34969 ft | 491 kts | 76° |
| 2026-05-04 23:54 | 47.19106 | -2.74125 | 34967 ft | 491 kts | 76° |
| 2026-05-04 23:55 | 47.21011 | -2.64479 | 34970 ft | 491 kts | 76° |
| 2026-05-04 23:56 | 47.23863 | -2.49994 | 34961 ft | 491 kts | 76° |
| 2026-05-04 23:56 | 47.25753 | -2.40341 | 34961 ft | 491 kts | 76° |
| 2026-05-04 23:57 | 47.27637 | -2.30665 | 34960 ft | 491 kts | 76° |
| 2026-05-04 23:57 | 47.29512 | -2.20982 | 34967 ft | 491 kts | 77° |
| 2026-05-04 23:58 | 47.31378 | -2.11302 | 34966 ft | 491 kts | 77° |
| 2026-05-04 23:58 | 47.33229 | -2.01648 | 34965 ft | 492 kts | 77° |
| 2026-05-04 23:59 | 47.35084 | -1.91925 | 34961 ft | 493 kts | 77° |
| 2026-05-04 23:59 | 47.36869 | -1.82155 | 34943 ft | 492 kts | 78° |
| 2026-05-05 00:00 | 47.38588 | -1.72373 | 34942 ft | 491 kts | 78° |
| 2026-05-05 00:00 | 47.40293 | -1.62669 | 34938 ft | 491 kts | 78° |
| 2026-05-05 00:01 | 47.42012 | -1.52896 | 34944 ft | 493 kts | 78° |
| 2026-05-05 00:01 | 47.43733 | -1.43082 | 34940 ft | 493 kts | 78° |
| 2026-05-05 00:02 | 47.45443 | -1.33285 | 34938 ft | 493 kts | 78° |
| 2026-05-05 00:02 | 47.47147 | -1.23469 | 34925 ft | 493 kts | 79° |
| 2026-05-05 00:03 | 47.48845 | -1.13623 | 34932 ft | 494 kts | 79° |
| 2026-05-05 00:03 | 47.50536 | -1.03763 | 34932 ft | 494 kts | 79° |
| 2026-05-05 00:04 | 47.52219 | -0.93895 | 34931 ft | 495 kts | 79° |
| 2026-05-05 00:04 | 47.54023 | -0.84133 | 34932 ft | 497 kts | 74° |
| 2026-05-05 00:05 | 47.56312 | -0.74468 | 34924 ft | 499 kts | 73° |
| 2026-05-05 00:05 | 47.58706 | -0.64814 | 34918 ft | 501 kts | 70° |
| 2026-05-05 00:05 | 47.60359 | -0.60255 | 34931 ft | 505 kts | 58° |
| 2026-05-05 00:06 | 47.62433 | -0.56043 | 34930 ft | 506 kts | 55° |
| 2026-05-05 00:06 | 47.66750 | -0.47787 | 34932 ft | 506 kts | 55° |
| 2026-05-05 00:07 | 47.71078 | -0.39546 | 34933 ft | 506 kts | 55° |
| 2026-05-05 00:07 | 47.75407 | -0.31283 | 34926 ft | 506 kts | 55° |
| 2026-05-05 00:08 | 47.79724 | -0.23020 | 34921 ft | 506 kts | 55° |
| 2026-05-05 00:08 | 47.84009 | -0.14796 | 34911 ft | 505 kts | 56° |
| 2026-05-05 00:09 | 47.88301 | -0.06529 | 34908 ft | 504 kts | 56° |
| 2026-05-05 00:09 | 47.91894 | 0.00410 | 34912 ft | 504 kts | 56° |
| 2026-05-05 00:09 | 47.94031 | 0.04544 | 34766 ft | 501 kts | 56° |
| 2026-05-05 00:10 | 47.96147 | 0.08639 | 34320 ft | 496 kts | 57° |
| 2026-05-05 00:10 | 47.98259 | 0.12739 | 33323 ft | 501 kts | 57° |
| 2026-05-05 00:10 | 48.00387 | 0.16881 | 32405 ft | 503 kts | 57° |
| 2026-05-05 00:10 | 48.02523 | 0.21039 | 31531 ft | 504 kts | 58° |
| 2026-05-05 00:11 | 48.04659 | 0.25205 | 30651 ft | 506 kts | 58° |
| 2026-05-05 00:11 | 48.06773 | 0.29335 | 29675 ft | 508 kts | 58° |
| 2026-05-05 00:11 | 48.08923 | 0.33541 | 28806 ft | 506 kts | 57° |
| 2026-05-05 00:11 | 48.11049 | 0.37702 | 28106 ft | 501 kts | 57° |
| 2026-05-05 00:12 | 48.12660 | 0.40859 | 27600 ft | 496 kts | 57° |
| 2026-05-05 00:12 | 48.14769 | 0.45001 | 26911 ft | 491 kts | 56° |
| 2026-05-05 00:12 | 48.16830 | 0.49054 | 26243 ft | 487 kts | 56° |
| 2026-05-05 00:12 | 48.18875 | 0.53085 | 25580 ft | 483 kts | 56° |
| 2026-05-05 00:13 | 48.20897 | 0.57075 | 24905 ft | 479 kts | 56° |
| 2026-05-05 00:13 | 48.22901 | 0.61036 | 24250 ft | 474 kts | 55° |
| 2026-05-05 00:13 | 48.24845 | 0.64883 | 23690 ft | 468 kts | 55° |
| 2026-05-05 00:13 | 48.26837 | 0.68830 | 23001 ft | 463 kts | 55° |
| 2026-05-05 00:14 | 48.28763 | 0.72652 | 22327 ft | 457 kts | 55° |
| 2026-05-05 00:14 | 48.30659 | 0.76415 | 22085 ft | 441 kts | 55° |
| 2026-05-05 00:14 | 48.32442 | 0.79959 | 21982 ft | 424 kts | 55° |
| 2026-05-05 00:14 | 48.34181 | 0.83468 | 21801 ft | 410 kts | 57° |
| 2026-05-05 00:15 | 48.35637 | 0.87108 | 21213 ft | 405 kts | 64° |
| 2026-05-05 00:15 | 48.36938 | 0.90844 | 20667 ft | 402 kts | 65° |
| 2026-05-05 00:15 | 48.38216 | 0.94565 | 20140 ft | 399 kts | 65° |
| 2026-05-05 00:15 | 48.39489 | 0.98262 | 19615 ft | 396 kts | 65° |
| 2026-05-05 00:16 | 48.40753 | 1.01928 | 19090 ft | 393 kts | 64° |
| 2026-05-05 00:16 | 48.42006 | 1.05567 | 18643 ft | 389 kts | 65° |
| 2026-05-05 00:16 | 48.43253 | 1.09191 | 18271 ft | 390 kts | 64° |
| 2026-05-05 00:16 | 48.44502 | 1.12826 | 17849 ft | 390 kts | 64° |
| 2026-05-05 00:17 | 48.45746 | 1.16447 | 17466 ft | 389 kts | 64° |
| 2026-05-05 00:17 | 48.46981 | 1.20047 | 17108 ft | 383 kts | 64° |
| 2026-05-05 00:17 | 48.48192 | 1.23579 | 16721 ft | 375 kts | 64° |
| 2026-05-05 00:17 | 48.49377 | 1.27038 | 16360 ft | 368 kts | 64° |
| 2026-05-05 00:18 | 48.50545 | 1.30458 | 15995 ft | 367 kts | 64° |
| 2026-05-05 00:18 | 48.51710 | 1.33871 | 15658 ft | 364 kts | 64° |
| 2026-05-05 00:18 | 48.52866 | 1.37229 | 15297 ft | 356 kts | 64° |
| 2026-05-05 00:18 | 48.53990 | 1.40504 | 14950 ft | 350 kts | 64° |
| 2026-05-05 00:19 | 48.55109 | 1.43770 | 14606 ft | 348 kts | 64° |
| 2026-05-05 00:19 | 48.56216 | 1.47007 | 14265 ft | 347 kts | 64° |
| 2026-05-05 00:19 | 48.57398 | 1.50159 | 13940 ft | 344 kts | 57° |
| 2026-05-05 00:19 | 48.58925 | 1.52897 | 13573 ft | 338 kts | 47° |
| 2026-05-05 00:20 | 48.60559 | 1.55412 | 13132 ft | 333 kts | 46° |
| 2026-05-05 00:20 | 48.62177 | 1.57875 | 12745 ft | 328 kts | 46° |
| 2026-05-05 00:20 | 48.63775 | 1.60319 | 12371 ft | 324 kts | 46° |
| 2026-05-05 00:20 | 48.65332 | 1.62707 | 12006 ft | 318 kts | 47° |
| 2026-05-05 00:21 | 48.66881 | 1.65090 | 11616 ft | 313 kts | 46° |
| 2026-05-05 00:21 | 48.68384 | 1.67404 | 11371 ft | 303 kts | 46° |
| 2026-05-05 00:21 | 48.69830 | 1.69637 | 11014 ft | 298 kts | 46° |
| 2026-05-05 00:21 | 48.71273 | 1.71867 | 10700 ft | 293 kts | 46° |
| 2026-05-05 00:22 | 48.72684 | 1.74049 | 10464 ft | 286 kts | 47° |
| 2026-05-05 00:22 | 48.74046 | 1.76159 | 10142 ft | 282 kts | 46° |
| 2026-05-05 00:22 | 48.75429 | 1.78304 | 9696 ft | 282 kts | 46° |
| 2026-05-05 00:22 | 48.76797 | 1.80425 | 9295 ft | 279 kts | 46° |
| 2026-05-05 00:23 | 48.78148 | 1.82521 | 8904 ft | 276 kts | 46° |
| 2026-05-05 00:23 | 48.79455 | 1.84551 | 8592 ft | 271 kts | 46° |
| 2026-05-05 00:23 | 48.80783 | 1.86615 | 8310 ft | 265 kts | 46° |
| 2026-05-05 00:23 | 48.82060 | 1.88602 | 7988 ft | 261 kts | 46° |
| 2026-05-05 00:24 | 48.83299 | 1.90531 | 7678 ft | 257 kts | 46° |
| 2026-05-05 00:24 | 48.84549 | 1.92479 | 7433 ft | 250 kts | 46° |
| 2026-05-05 00:24 | 48.85758 | 1.94363 | 7127 ft | 247 kts | 46° |
| 2026-05-05 00:24 | 48.86937 | 1.96204 | 6795 ft | 245 kts | 46° |
| 2026-05-05 00:25 | 48.88106 | 1.98029 | 6570 ft | 240 kts | 46° |
| 2026-05-05 00:25 | 48.89265 | 1.99840 | 6334 ft | 235 kts | 46° |
| 2026-05-05 00:25 | 48.90394 | 2.01606 | 6051 ft | 231 kts | 46° |
| 2026-05-05 00:25 | 48.91510 | 2.03353 | 5771 ft | 229 kts | 46° |
| 2026-05-05 00:26 | 48.92599 | 2.05057 | 5628 ft | 219 kts | 47° |
| 2026-05-05 00:26 | 48.93637 | 2.06685 | 5470 ft | 210 kts | 47° |
| 2026-05-05 00:26 | 48.94638 | 2.08253 | 5318 ft | 202 kts | 47° |
| 2026-05-05 00:26 | 48.95600 | 2.09764 | 5208 ft | 197 kts | 47° |
| 2026-05-05 00:27 | 48.96553 | 2.11260 | 5108 ft | 197 kts | 47° |
| 2026-05-05 00:27 | 48.97507 | 2.12759 | 5050 ft | 197 kts | 47° |
| 2026-05-05 00:27 | 48.98457 | 2.14254 | 4957 ft | 196 kts | 47° |
| 2026-05-05 00:27 | 48.99393 | 2.15726 | 4914 ft | 196 kts | 47° |
| 2026-05-05 00:28 | 49.00255 | 2.17358 | 4837 ft | 196 kts | 66° |
| 2026-05-05 00:28 | 49.00614 | 2.19283 | 4726 ft | 185 kts | 82° |
| 2026-05-05 00:28 | 49.00754 | 2.21180 | 4557 ft | 176 kts | 84° |
| 2026-05-05 00:28 | 49.00879 | 2.23010 | 4277 ft | 174 kts | 83° |
| 2026-05-05 00:29 | 49.00983 | 2.24849 | 3989 ft | 171 kts | 85° |
| 2026-05-05 00:29 | 49.01076 | 2.26636 | 3740 ft | 167 kts | 84° |
| 2026-05-05 00:29 | 49.01172 | 2.28373 | 3510 ft | 161 kts | 84° |
| 2026-05-05 00:29 | 49.01261 | 2.30018 | 3301 ft | 154 kts | 84° |
| 2026-05-05 00:30 | 49.01346 | 2.31595 | 3094 ft | 140 kts | 84° |
| 2026-05-05 00:30 | 49.01423 | 2.33014 | 2925 ft | 135 kts | 84° |
| 2026-05-05 00:30 | 49.01499 | 2.34433 | 2757 ft | 133 kts | 84° |
| 2026-05-05 00:30 | 49.01574 | 2.35820 | 2553 ft | 129 kts | 84° |
| 2026-05-05 00:31 | 49.01646 | 2.37165 | 2392 ft | 128 kts | 83° |
| 2026-05-05 00:31 | 49.01719 | 2.38514 | 2222 ft | 125 kts | 84° |
| 2026-05-05 00:31 | 49.01789 | 2.39827 | 2062 ft | 123 kts | 83° |
| 2026-05-05 00:31 | 49.01859 | 2.41119 | 1886 ft | 122 kts | 83° |
| 2026-05-05 00:32 | 49.01927 | 2.42392 | 1728 ft | 122 kts | 83° |
| 2026-05-05 00:32 | 49.01997 | 2.43694 | 1556 ft | 122 kts | 83° |
| 2026-05-05 00:32 | 49.02067 | 2.44984 | 1386 ft | 122 kts | 83° |
| 2026-05-05 00:32 | 49.02136 | 2.46273 | 1223 ft | 123 kts | 83° |
| 2026-05-05 00:33 | 49.02207 | 2.47568 | 1026 ft | 124 kts | 82° |
| 2026-05-05 00:33 | 49.02291 | 2.48901 | 817 ft | 125 kts | 82° |
| 2026-05-05 00:33 | 49.02357 | 2.50225 | 633 ft | 126 kts | 84° |
| 2026-05-05 00:33 | 49.02418 | 2.51553 | 469 ft | 125 kts | 81° |
| 2026-05-05 00:34 | 49.02495 | 2.52872 | 393 ft | 125 kts | 83° |
| 2026-05-05 00:34 | 49.02562 | 2.54152 | 367 ft | 117 kts | 84° |
| 2026-05-05 00:34 | 49.02619 | 2.55175 | 369 ft | 72 kts | 85° |
| 2026-05-05 00:34 | 49.02647 | 2.55694 | 365 ft | 42 kts | 85° |
| 2026-05-05 00:35 | 49.02524 | 2.55936 | 367 ft | 26 kts | 169° |
| 2026-05-05 00:35 | 49.02343 | 2.55962 | 367 ft | 26 kts | 174° |
| 2026-05-05 00:35 | 49.02164 | 2.55985 | 366 ft | 18 kts | 191° |
| 2026-05-05 00:35 | 49.02086 | 2.55856 | 369 ft | 18 kts | 256° |
| 2026-05-05 00:36 | 49.02073 | 2.55652 | 366 ft | 21 kts | 264° |
| 2026-05-05 00:36 | 49.02058 | 2.55414 | 362 ft | 23 kts | 264° |
| 2026-05-05 00:36 | 49.02042 | 2.55157 | 368 ft | 26 kts | 265° |
| 2026-05-05 00:36 | 49.02000 | 2.54892 | 368 ft | 26 kts | 225° |
| 2026-05-05 00:37 | 49.01855 | 2.54803 | 363 ft | 21 kts | 246° |
| 2026-05-05 00:37 | 49.01833 | 2.54577 | 361 ft | 23 kts | 266° |
| 2026-05-05 00:37 | 49.01814 | 2.54349 | 368 ft | 13 kts | 236° |
| 2026-05-05 00:37 | 49.01758 | 2.54322 | 369 ft | 9 kts | 184° |
| 2026-05-05 00:38 | 49.01694 | 2.54301 | 368 ft | 7 kts | 193° |
| 2026-05-05 00:38 | 49.01689 | 2.54299 | 368 ft | 0 kts | 193° |